Data for 06/27/2011

Time Sea-Level Adjusted Pressure Absolute Pressure Temperature Relative Humidity Dew Point Precipitation   
(mb) (inHg) (mb) (inHg) (C) (F) (%) (C) (F) (mm) (in)
00:01 1024 30.24 853 25.19 7.4 45.3 67 1.8 35.2 -87.1 -3.429
00:02 1024 30.24 853 25.19 7.5 45.4 67 1.7 35.1 -87.1 -3.429
00:03 1024 30.24 853 25.19 7.5 45.5 67 1.8 35.2 -87.1 -3.429
00:04 1024 30.24 853 25.19 7.5 45.6 67 1.8 35.2 -87.1 -3.429
00:05 1024 30.24 853 25.19 7.6 45.6 66 1.7 35.1 -87.1 -3.429
00:06 1024 30.24 853 25.19 7.6 45.6 67 1.9 35.5 -87.1 -3.429
00:07 1024 30.24 853 25.19 7.5 45.6 66 1.6 34.9 -87.1 -3.429
00:08 1024 30.24 853 25.19 7.6 45.7 66 1.7 35 -87.1 -3.429
00:09 1024 30.24 853 25.19 7.6 45.7 66 1.6 35 -87.1 -3.429
00:10 1024 30.24 853 25.19 7.6 45.7 66 1.7 35.1 -87.2 -3.433
00:11 1024 30.24 853 25.19 7.5 45.6 67 1.8 35.2 -87.2 -3.433
00:12 1024 30.24 853 25.19 7.4 45.4 67 1.7 35.1 -87.2 -3.433
00:13 1024 30.24 853 25.19 7.3 45.2 68 1.7 35.1 -87.2 -3.433
00:14 1024 30.24 853 25.19 7.3 45.2 67 1.7 35.1 -87.2 -3.433
00:15 1024 30.24 853 25.19 7.3 45.1 68 1.7 35.1 -87.2 -3.433
00:16 1024 30.24 853 25.19 7.2 45 68 1.6 34.9 -87.2 -3.433
00:17 1024 30.24 853 25.19 7.2 44.9 68 1.6 34.9 -87.2 -3.433
00:18 1024 30.24 853 25.19 7.2 44.9 68 1.6 34.9 -87.2 -3.433
00:19 1024 30.24 853 25.19 7.2 44.9 68 1.7 35.1 -87.2 -3.433
00:20 1024 30.24 853 25.19 7.1 44.8 67 1.5 34.7 -87.2 -3.433
00:21 1024 30.24 853 25.19 7.3 45.1 67 1.5 34.8 -87.2 -3.433
00:22 1024 30.24 853 25.19 7.3 45.2 67 1.6 34.9 -87.3 -3.437
00:23 1024 30.24 853 25.19 7.3 45.2 67 1.7 35 -87.3 -3.437
00:24 1024 30.24 853 25.19 7.3 45.1 68 1.7 35.1 -87.3 -3.437
00:25 1024 30.24 853 25.19 7.2 45 68 1.8 35.3 -87.3 -3.437
00:26 1024 30.24 853 25.19 7.1 44.9 68 1.7 35.1 -87.3 -3.437
00:27 1024 30.24 853 25.19 7.1 44.8 68 1.7 35 -87.3 -3.437
00:28 1024 30.24 853 25.19 7.1 44.7 69 1.8 35.3 -87.3 -3.437
00:29 1024 30.24 853 25.19 6.9 44.5 69 1.7 35.1 -87.3 -3.437
00:30 1024 30.24 853 25.19 6.9 44.4 69 1.6 34.9 -87.3 -3.437
00:31 1024 30.24 853 25.19 6.9 44.4 69 1.7 35.1 -87.3 -3.437
00:32 1024 30.24 853 25.19 6.9 44.4 69 1.7 35 -87.3 -3.437
00:33 1024 30.24 853 25.19 7 44.6 69 1.7 35.1 -87.3 -3.437
00:34 1024 30.24 853 25.19 7 44.6 69 1.7 35.1 -87.3 -3.437
00:35 1024 30.24 853 25.19 7 44.5 69 1.7 35.1 -87.3 -3.437
00:36 1024 30.24 853 25.19 7 44.5 69 1.7 35.1 -87.3 -3.437
00:37 1024 30.24 853 25.19 6.9 44.5 70 1.8 35.2 -87.3 -3.437
00:38 1024 30.24 853 25.19 6.9 44.4 70 1.8 35.3 -87.3 -3.437
00:39 1024 30.24 853 25.19 6.8 44.3 71 1.9 35.4 -87.4 -3.441
00:40 1024 30.24 853 25.19 6.8 44.2 71 1.9 35.3 -87.4 -3.441
00:41 1024 30.24 853 25.19 6.7 44.1 70 1.7 35.1 -87.4 -3.441
00:42 1024 30.24 853 25.19 6.8 44.2 70 1.7 35.1 -87.4 -3.441
00:43 1024 30.24 853 25.19 6.8 44.3 70 1.7 35.1 -87.4 -3.441
00:44 1024 30.24 853 25.19 6.9 44.4 69 1.6 34.9 -87.4 -3.441
00:45 1024 30.24 853 25.19 6.9 44.4 69 1.6 34.9 -87.4 -3.441
00:46 1024 30.24 853 25.19 7 44.6 68 1.6 34.9 -87.4 -3.441
00:47 1024 30.24 853 25.19 7.1 44.7 68 1.7 35 -87.4 -3.441
00:48 1024 30.24 853 25.19 7.1 44.7 69 1.8 35.2 -87.4 -3.441
00:49 1024 30.24 853 25.19 7 44.7 69 1.8 35.2 -87.4 -3.441
00:50 1024 30.24 853 25.19 7.1 44.7 69 1.7 35.1 -87.4 -3.441
00:51 1024 30.24 853 25.19 7.1 44.8 69 1.9 35.4 -87.4 -3.441
00:52 1024 30.24 853 25.19 7.2 44.9 69 1.9 35.4 -87.4 -3.441
00:53 1024 30.24 853 25.19 7.2 44.9 69 1.9 35.4 -87.4 -3.441
00:54 1024 30.24 853 25.19 7.2 45 68 1.8 35.3 -87.4 -3.441
00:55 1024 30.24 853 25.19 7.3 45.1 69 2 35.5 -87.4 -3.441
00:56 1024 30.24 853 25.19 7.2 44.9 69 1.9 35.5 -87.4 -3.441
00:57 1024 30.24 853 25.19 7.2 45 69 2 35.6 -87.4 -3.441
00:58 1024 30.24 853 25.19 7.2 45 69 2 35.6 -87.4 -3.441
00:59 1024 30.24 853 25.19 7.2 45 69 1.9 35.5 -87.4 -3.441
01:00 1024 30.24 853 25.19 7.2 45 69 1.9 35.5 -87.4 -3.441
01:01 1024 30.24 853 25.19 7.3 45.1 68 1.8 35.3 -87.4 -3.441
01:02 1024 30.24 853 25.19 7.3 45.2 69 2 35.5 -87.4 -3.441
01:03 1024 30.24 853 25.19 7.4 45.3 69 2.1 35.7 -87.4 -3.441
01:04 1024 30.24 853 25.19 7.4 45.2 69 2.1 35.7 -87.4 -3.441
01:05 1024 30.24 853 25.19 7.3 45.1 69 2 35.7 -87.5 -3.445
01:06 1024 30.24 853 25.19 7.3 45.1 69 2 35.7 -87.5 -3.445
01:07 1024 30.24 853 25.19 7.3 45.1 69 2 35.7 -87.5 -3.445
01:08 1024 30.24 853 25.19 7.2 44.9 70 2.1 35.8 -87.5 -3.445
01:09 1024 30.24 853 25.19 7.1 44.8 70 2.1 35.8 -87.5 -3.445
01:10 1024 30.24 853 25.19 7.1 44.8 71 2.2 35.9 -87.5 -3.445
01:11 1024 30.24 853 25.19 7.1 44.7 71 2.2 35.9 -87.5 -3.445
01:12 1024 30.24 853 25.19 7 44.6 72 2.3 36.1 -87.5 -3.445
01:13 1024 30.24 853 25.19 6.9 44.4 72 2.3 36.1 -87.5 -3.445
01:14 1024 30.24 853 25.19 6.8 44.2 72 2.2 35.9 -87.5 -3.445
01:15 1024 30.24 853 25.19 6.7 44 73 2.1 35.8 -87.5 -3.445
01:16 1024 30.24 853 25.19 6.7 44 73 2.2 36 -87.5 -3.445
01:17 1024 30.24 853 25.19 6.5 43.8 74 2.2 36 -87.5 -3.445
01:18 1024 30.24 853 25.19 6.5 43.6 74 2.2 36 -87.5 -3.445
01:19 1024 30.24 853 25.19 6.4 43.5 75 2.2 36 -87.5 -3.445
01:20 1024 30.24 853 25.19 6.3 43.4 75 2.2 36 -87.5 -3.445
01:21 1024 30.24 853 25.19 6.3 43.3 76 2.3 36.2 -87.5 -3.445
01:22 1024 30.24 853 25.19 6.2 43.1 76 2.3 36.1 -87.5 -3.445
01:23 1024 30.24 853 25.19 6.1 43 76 2.1 35.8 -87.5 -3.445
01:24 1024 30.24 853 25.19 6.1 43 75 2 35.7 -87.5 -3.445
01:25 1024 30.24 853 25.19 6.1 43 75 2.1 35.7 -87.5 -3.445
01:26 1024 30.24 853 25.19 6.1 43 75 2.1 35.7 -87.5 -3.445
01:27 1024 30.24 853 25.19 6 42.9 75 1.9 35.5 -87.5 -3.445
01:28 1024 30.24 853 25.19 6.1 43 74 1.9 35.4 -87.5 -3.445
01:29 1024 30.24 853 25.19 6.1 43 74 1.9 35.4 -87.5 -3.445
01:30 1024 30.24 853 25.19 6.2 43.2 74 2 35.6 -87.5 -3.445
01:31 1024 30.24 853 25.19 6.2 43.1 75 2 35.7 -87.5 -3.445
01:32 1024 30.24 853 25.19 6.2 43.1 74 2 35.5 -87.5 -3.445
01:33 1024 30.24 853 25.19 6.2 43.2 74 2 35.6 -87.6 -3.449
01:34 1024 30.24 853 25.19 6.3 43.3 74 1.9 35.5 -87.6 -3.449
01:35 1023 30.21 853 25.19 6.4 43.5 73 2 35.5 -87.6 -3.449
01:36 1024 30.24 853 25.19 6.4 43.6 73 2 35.6 -87.6 -3.449
01:37 1024 30.24 853 25.19 6.5 43.7 73 1.9 35.5 -87.6 -3.449
01:38 1023 30.21 853 25.19 6.5 43.7 73 2 35.5 -87.6 -3.449
01:39 1023 30.21 853 25.19 6.5 43.7 73 1.9 35.5 -87.6 -3.449
01:40 1024 30.24 853 25.19 6.5 43.8 72 1.8 35.3 -87.6 -3.449
01:41 1024 30.24 853 25.19 6.7 44 72 1.9 35.4 -87.6 -3.449
01:42 1024 30.24 853 25.19 6.7 44.1 71 1.9 35.4 -87.6 -3.449
01:43 1024 30.24 853 25.19 6.8 44.2 71 1.8 35.3 -87.6 -3.449
01:44 1024 30.24 853 25.19 6.8 44.3 70 1.8 35.2 -87.6 -3.449
01:45 1024 30.24 853 25.19 6.8 44.2 71 1.8 35.3 -87.6 -3.449
01:46 1023 30.21 853 25.19 6.8 44.2 71 1.9 35.4 -87.6 -3.449
01:47 1023 30.21 853 25.19 6.7 44.1 70 1.7 35.1 -87.7 -3.453
01:48 1024 30.24 853 25.19 6.8 44.3 69 1.6 34.8 -87.7 -3.453
01:49 1023 30.21 853 25.19 7.1 44.7 68 1.6 34.8 -87.7 -3.453
01:50 1024 30.24 853 25.19 7.2 44.9 68 1.6 35 -87.7 -3.453
01:51 1024 30.24 853 25.19 7.2 44.9 68 1.6 34.9 -87.7 -3.453
01:52 1024 30.24 853 25.19 7.2 45 68 1.7 35.1 -87.7 -3.453
01:53 1024 30.24 853 25.19 7.2 44.9 68 1.6 34.9 -87.7 -3.453
01:54 1024 30.24 853 25.19 7.2 45 68 1.8 35.2 -87.7 -3.453
01:55 1024 30.24 853 25.19 7.2 45 68 1.8 35.2 -87.7 -3.453
01:56 1024 30.24 853 25.19 7.3 45.1 68 1.8 35.3 -87.7 -3.453
01:57 1024 30.24 853 25.19 7.2 45 68 1.7 35.1 -87.7 -3.453
01:58 1024 30.24 853 25.19 7.3 45.1 69 1.9 35.4 -87.7 -3.453
01:59 1024 30.24 853 25.19 7.2 44.9 68 1.7 35.1 -87.7 -3.453
02:00 1024 30.24 853 25.19 7.2 45 68 1.7 35 -87.7 -3.453
02:01 1024 30.24 853 25.19 7.3 45.1 68 1.9 35.3 -87.8 -3.457
02:02 1024 30.24 853 25.19 7.3 45.1 68 1.8 35.2 -87.8 -3.457
02:03 1024 30.24 853 25.19 7.2 45 68 1.7 35 -87.8 -3.457
02:04 1024 30.24 853 25.19 7.3 45.1 68 1.8 35.2 -87.8 -3.457
02:05 1024 30.24 853 25.19 7.3 45.1 68 1.8 35.2 -87.8 -3.457
02:06 1023 30.21 853 25.19 7.3 45.2 68 1.8 35.2 -87.8 -3.457
02:07 1023 30.21 853 25.19 7.3 45.2 67 1.6 34.9 -87.8 -3.457
02:08 1023 30.21 853 25.19 7.3 45.2 67 1.6 35 -87.8 -3.457
02:09 1023 30.21 853 25.19 7.3 45.1 68 1.7 35.1 -87.8 -3.457
02:10 1023 30.21 853 25.19 7.3 45.1 67 1.6 34.9 -87.8 -3.457
02:11 1023 30.21 853 25.19 7.2 45 67 1.5 34.7 -87.8 -3.457
02:12 1023 30.21 853 25.19 7.2 45 67 1.6 34.9 -87.8 -3.457
02:13 1023 30.21 853 25.19 7.2 44.9 68 1.8 35.2 -87.8 -3.457
02:14 1023 30.21 853 25.19 7 44.6 69 1.7 35.1 -87.8 -3.457
02:15 1023 30.21 853 25.19 6.9 44.4 69 1.6 34.9 -87.8 -3.457
02:16 1023 30.21 853 25.19 6.8 44.3 69 1.5 34.7 -87.8 -3.457
02:17 1023 30.21 853 25.19 6.8 44.2 69 1.5 34.8 -87.8 -3.457
02:18 1023 30.21 853 25.19 6.7 44.1 68 1.4 34.5 -87.8 -3.457
02:19 1023 30.21 853 25.19 6.7 44.1 69 1.5 34.7 -87.8 -3.457
02:20 1023 30.21 853 25.19 6.6 43.9 69 1.5 34.6 -87.8 -3.457
02:21 1023 30.21 853 25.19 6.6 43.9 69 1.3 34.4 -87.8 -3.457
02:22 1023 30.21 853 25.19 6.7 44 69 1.3 34.4 -87.8 -3.457
02:23 1023 30.21 853 25.19 6.7 44 68 1.3 34.3 -87.8 -3.457
02:24 1023 30.21 853 25.19 6.8 44.2 68 1.3 34.3 -87.8 -3.457
02:25 1023 30.21 853 25.19 6.8 44.2 68 1.3 34.3 -87.8 -3.457
02:26 1023 30.21 853 25.19 6.8 44.3 67 1.2 34.2 -87.8 -3.457
02:27 1023 30.21 853 25.19 6.8 44.3 68 1.4 34.4 -87.8 -3.457
02:28 1023 30.21 853 25.19 6.7 44.1 68 1.3 34.3 -87.8 -3.457
02:29 1023 30.21 853 25.19 6.7 44 68 1.3 34.3 -87.8 -3.457
02:30 1023 30.21 853 25.19 6.7 44 68 1.3 34.3 -87.8 -3.457
02:31 1023 30.21 853 25.19 6.5 43.8 69 1.3 34.3 -87.8 -3.457
02:32 1023 30.21 853 25.19 6.5 43.7 69 1.3 34.3 -87.8 -3.457
02:33 1023 30.21 853 25.19 6.5 43.7 69 1.2 34.2 -87.8 -3.457
02:34 1023 30.21 853 25.19 6.5 43.8 69 1.3 34.3 -87.8 -3.457
02:35 1023 30.21 853 25.19 6.5 43.7 69 1.2 34.1 -87.8 -3.457
02:36 1023 30.21 853 25.19 6.5 43.7 69 1.2 34.2 -87.8 -3.457
02:37 1023 30.21 853 25.19 6.4 43.6 70 1.3 34.3 -87.8 -3.457
02:38 1023 30.21 853 25.19 6.3 43.4 70 1.3 34.3 -87.8 -3.457
02:39 1023 30.21 853 25.19 6.2 43.2 70 1.2 34.2 -87.8 -3.457
02:40 1023 30.21 853 25.19 6.2 43.2 70 1.2 34.2 -87.8 -3.457
02:41 1023 30.21 853 25.19 6.1 43 71 1.2 34.2 -87.8 -3.457
02:42 1023 30.21 853 25.19 6.1 42.9 71 1.2 34.2 -87.9 -3.461
02:43 1023 30.21 853 25.19 6 42.8 72 1.3 34.3 -87.9 -3.461
02:44 1023 30.21 853 25.19 5.9 42.7 72 1.4 34.5 -87.9 -3.461
02:45 1023 30.21 853 25.19 5.8 42.5 73 1.3 34.4 -87.9 -3.461
02:46 1023 30.21 853 25.19 5.7 42.2 74 1.4 34.6 -87.9 -3.461
02:47 1023 30.21 853 25.19 5.5 41.9 75 1.4 34.6 -87.9 -3.461
02:48 1023 30.21 853 25.19 5.4 41.7 75 1.3 34.3 -87.9 -3.461
02:49 1023 30.21 853 25.19 5.3 41.6 75 1.3 34.3 -87.9 -3.461
02:50 1023 30.21 853 25.19 5.4 41.7 74 1.1 34.1 -87.9 -3.461
02:51 1023 30.21 853 25.19 5.4 41.7 74 1.1 34 -87.9 -3.461
02:52 1023 30.21 853 25.19 5.5 41.9 73 1.1 34 -87.9 -3.461
02:53 1023 30.21 853 25.19 5.6 42 73 1.2 34.1 -87.9 -3.461
02:54 1023 30.21 853 25.19 5.6 42.1 73 1.1 34 -88 -3.465
02:55 1023 30.21 853 25.19 5.7 42.2 72 1.1 34 -88 -3.465
02:56 1023 30.21 853 25.19 5.8 42.4 72 1.2 34.1 -88 -3.465
02:57 1023 30.21 853 25.19 5.7 42.3 72 1.1 34 -88 -3.465
02:58 1023 30.21 853 25.19 5.8 42.5 72 1.2 34.1 -88 -3.465
02:59 1024 30.24 853 25.19 5.8 42.4 72 1.2 34.2 -88 -3.465
03:00 1023 30.21 853 25.19 5.8 42.4 73 1.3 34.3 -88 -3.465
03:01 1024 30.24 853 25.19 5.7 42.2 74 1.3 34.4 -88 -3.465
03:02 1023 30.21 853 25.19 5.6 42 74 1.3 34.4 -88 -3.465
03:03 1023 30.21 853 25.19 5.5 41.9 74 1.3 34.3 -88 -3.465
03:04 1023 30.21 853 25.19 5.5 41.9 74 1.1 34 -88 -3.465
03:05 1023 30.21 853 25.19 5.5 41.9 73 1.1 34 -88 -3.465
03:06 1023 30.21 853 25.19 5.5 41.9 73 1.1 34 -88 -3.465
03:07 1023 30.21 853 25.19 5.4 41.8 74 1.2 34.2 -88 -3.465
03:08 1023 30.21 853 25.19 5.3 41.6 75 1.2 34.1 -88.1 -3.469
03:09 1023 30.21 853 25.19 5.3 41.6 75 1.2 34.2 -88.1 -3.469
03:10 1023 30.21 853 25.19 5.3 41.5 74 1.1 33.9 -88.1 -3.469
03:11 1023 30.21 853 25.19 5.4 41.7 74 1.1 34 -88.1 -3.469
03:12 1023 30.21 853 25.19 5.4 41.7 73 1.1 33.9 -88.1 -3.469
03:13 1023 30.21 853 25.19 5.5 41.9 73 1.1 33.9 -88.1 -3.469
03:14 1023 30.21 853 25.19 5.5 41.9 73 1.1 33.9 -88.1 -3.469
03:15 1023 30.21 853 25.19 5.6 42 72 1 33.8 -88.2 -3.472
03:16 1023 30.21 853 25.19 5.7 42.2 72 1 33.7 -88.2 -3.472
03:17 1023 30.21 853 25.19 5.8 42.4 71 1 33.8 -88.2 -3.472
03:18 1023 30.21 853 25.19 5.8 42.5 71 0.9 33.7 -88.2 -3.472
03:19 1023 30.21 853 25.19 5.9 42.6 70 0.9 33.7 -88.2 -3.472
03:20 1023 30.21 853 25.19 6 42.8 70 0.9 33.7 -88.2 -3.472
03:21 1023 30.21 853 25.19 6 42.8 70 0.9 33.7 -88.2 -3.472
03:22 1023 30.21 853 25.19 5.9 42.7 70 0.9 33.6 -88.2 -3.472
03:23 1023 30.21 853 25.19 5.9 42.7 70 0.9 33.6 -88.2 -3.472
03:24 1023 30.21 853 25.19 6 42.7 70 0.8 33.5 -88.3 -3.476
03:25 1023 30.21 853 25.19 5.9 42.7 69 0.8 33.4 -88.3 -3.476
03:26 1023 30.21 853 25.19 6 42.8 69 0.8 33.5 -88.3 -3.476
03:27 1023 30.21 853 25.19 6 42.8 69 0.9 33.5 -88.3 -3.476
03:28 1023 30.21 852 25.16 6 42.7 69 0.7 33.3 -88.3 -3.476
03:29 1023 30.21 852 25.16 5.9 42.7 69 0.7 33.3 -88.3 -3.476
03:30 1023 30.21 852 25.16 5.9 42.6 69 0.7 33.3 -88.3 -3.476
03:31 1023 30.21 852 25.16 5.8 42.4 70 0.8 33.4 -88.4 -3.48
03:32 1023 30.21 852 25.16 5.7 42.2 70 0.7 33.3 -88.4 -3.48
03:33 1023 30.21 852 25.16 5.6 42.1 71 0.8 33.4 -88.4 -3.48
03:34 1023 30.21 853 25.19 5.6 42 71 0.7 33.3 -88.4 -3.48
03:35 1023 30.21 853 25.19 5.6 42 71 0.7 33.3 -88.4 -3.48
03:36 1023 30.21 853 25.19 5.6 42 71 0.7 33.3 -88.4 -3.48
03:37 1023 30.21 853 25.19 5.7 42.2 71 0.8 33.4 -88.4 -3.48
03:38 1023 30.21 853 25.19 5.7 42.3 71 0.8 33.4 -88.4 -3.48
03:39 1023 30.21 853 25.19 5.7 42.2 72 1 33.7 -88.4 -3.48
03:40 1023 30.21 853 25.19 5.4 41.7 73 0.9 33.7 -88.4 -3.48
03:41 1023 30.21 853 25.19 5 40.9 75 0.9 33.6 -88.4 -3.48
03:42 1023 30.21 853 25.19 4.8 40.7 75 0.8 33.4 -88.4 -3.48
03:43 1023 30.21 853 25.19 5 41 74 0.8 33.4 -88.4 -3.48
03:44 1023 30.21 853 25.19 5.1 41.3 73 0.8 33.4 -88.5 -3.484
03:45 1023 30.21 853 25.19 5.1 41.2 73 0.7 33.3 -88.5 -3.484
03:46 1023 30.21 853 25.19 5 41.1 74 0.7 33.3 -88.5 -3.484
03:47 1023 30.21 853 25.19 5 41 74 0.8 33.5 -88.5 -3.484
03:48 1023 30.21 853 25.19 4.9 40.9 74 0.8 33.4 -88.5 -3.484
03:49 1023 30.21 853 25.19 5 41 74 0.7 33.3 -88.5 -3.484
03:50 1023 30.21 853 25.19 5.1 41.2 74 0.8 33.4 -88.5 -3.484
03:51 1023 30.21 853 25.19 5.1 41.2 73 0.7 33.2 -88.5 -3.484
03:52 1023 30.21 853 25.19 5.1 41.2 73 0.7 33.2 -88.5 -3.484
03:53 1023 30.21 853 25.19 5.2 41.3 73 0.7 33.3 -88.6 -3.488
03:54 1023 30.21 853 25.19 5.1 41.2 73 0.8 33.4 -88.5 -3.484
03:55 1023 30.21 853 25.19 5.1 41.1 74 0.7 33.3 -88.6 -3.488
03:56 1023 30.21 853 25.19 4.9 40.9 74 0.8 33.4 -88.6 -3.488
03:57 1023 30.21 853 25.19 4.8 40.6 75 0.7 33.2 -88.6 -3.488
03:58 1023 30.21 853 25.19 4.8 40.7 74 0.6 33 -88.6 -3.488
03:59 1023 30.21 853 25.19 4.8 40.7 74 0.7 33.2 -88.6 -3.488
04:00 1023 30.21 853 25.19 4.7 40.4 75 0.7 33.3 -88.6 -3.488
04:01 1023 30.21 853 25.19 4.4 40 76 0.6 33.1 -88.6 -3.488
04:02 1023 30.21 853 25.19 4.3 39.7 77 0.6 33.1 -88.6 -3.488
04:03 1023 30.21 853 25.19 4.1 39.4 78 0.6 33 -88.6 -3.488
04:04 1023 30.21 853 25.19 4 39.3 78 0.6 33 -88.6 -3.488
04:05 1023 30.21 853 25.19 3.9 39.1 79 0.6 33 -88.6 -3.488
04:06 1023 30.21 853 25.19 3.7 38.6 80 0.6 33 -88.6 -3.488
04:07 1023 30.21 853 25.19 3.4 38.1 82 0.6 33.1 -88.6 -3.488
04:08 1023 30.21 853 25.19 3.2 37.7 83 0.6 33.1 -88.6 -3.488
04:09 1023 30.21 853 25.19 2.9 37.3 85 0.6 33.1 -88.6 -3.488
04:10 1023 30.21 853 25.19 2.8 37 85 0.6 33.1 -88.6 -3.488
04:11 1023 30.21 853 25.19 2.7 36.9 86 0.6 33.1 -88.6 -3.488
04:12 1023 30.21 853 25.19 2.7 36.8 86 0.6 33.1 -88.6 -3.488
04:13 1023 30.21 853 25.19 2.7 36.9 86 0.6 33.1 -88.5 -3.484
04:14 1023 30.21 853 25.19 2.7 36.9 86 0.6 33.1 -88.5 -3.484
04:15 1023 30.21 853 25.19 2.8 37 86 0.7 33.2 -88.5 -3.484
04:16 1023 30.21 853 25.19 2.8 37 86 0.7 33.2 -88.5 -3.484
04:17 1023 30.21 853 25.19 2.8 37 86 0.7 33.2 -88.5 -3.484
04:18 1023 30.21 853 25.19 2.8 37.1 86 0.7 33.3 -88.5 -3.484
04:19 1023 30.21 853 25.19 2.7 36.9 86 0.7 33.2 -88.5 -3.484
04:20 1023 30.21 853 25.19 2.7 36.9 87 0.7 33.3 -88.5 -3.484
04:21 1023 30.21 853 25.19 2.6 36.7 87 0.7 33.3 -88.5 -3.484
04:22 1023 30.21 853 25.19 2.6 36.6 87 0.7 33.2 -88.5 -3.484
04:23 1023 30.21 853 25.19 2.6 36.7 87 0.7 33.2 -88.5 -3.484
04:24 1023 30.21 853 25.19 2.7 36.9 87 0.7 33.2 -88.5 -3.484
04:25 1023 30.21 853 25.19 2.8 37 86 0.7 33.3 -88.5 -3.484
04:26 1024 30.24 853 25.19 2.8 37.1 86 0.7 33.3 -88.5 -3.484
04:27 1023 30.21 853 25.19 3 37.3 86 0.8 33.4 -88.5 -3.484
04:28 1023 30.21 853 25.19 3.1 37.5 85 0.8 33.5 -88.5 -3.484
04:29 1023 30.21 853 25.19 3.1 37.6 85 0.9 33.6 -88.5 -3.484
04:30 1024 30.24 853 25.19 3.1 37.6 85 0.8 33.5 -88.6 -3.488
04:31 1024 30.24 853 25.19 3.2 37.7 84 0.8 33.4 -88.6 -3.488
04:32 1024 30.24 853 25.19 3.1 37.6 85 0.8 33.5 -88.6 -3.488
04:33 1024 30.24 853 25.19 3 37.4 86 0.8 33.5 -88.6 -3.488
04:34 1024 30.24 853 25.19 2.9 37.2 86 0.8 33.4 -88.6 -3.488
04:35 1024 30.24 853 25.19 2.8 37 87 0.8 33.5 -88.6 -3.488
04:36 1024 30.24 853 25.19 2.6 36.8 88 0.8 33.5 -88.6 -3.488
04:37 1023 30.21 853 25.19 2.6 36.6 88 0.8 33.4 -88.6 -3.488
04:38 1023 30.21 853 25.19 2.6 36.6 88 0.8 33.4 -88.6 -3.488
04:39 1023 30.21 853 25.19 2.6 36.7 89 0.9 33.6 -88.6 -3.488
04:40 1023 30.21 853 25.19 2.6 36.6 89 0.9 33.7 -88.6 -3.488
04:41 1023 30.21 853 25.19 2.5 36.5 89 0.9 33.7 -88.6 -3.488
04:42 1023 30.21 853 25.19 2.5 36.4 90 0.9 33.7 -88.6 -3.488
04:43 1023 30.21 853 25.19 2.4 36.4 90 1 33.7 -88.6 -3.488
04:44 1023 30.21 853 25.19 2.4 36.3 90 0.9 33.7 -88.6 -3.488
04:45 1023 30.21 853 25.19 2.4 36.3 90 0.9 33.7 -88.6 -3.488
04:46 1023 30.21 853 25.19 2.4 36.3 90 0.9 33.6 -88.5 -3.484
04:47 1023 30.21 853 25.19 2.4 36.4 90 0.9 33.7 -88.5 -3.484
04:48 1023 30.21 853 25.19 2.5 36.4 89 0.9 33.6 -88.5 -3.484
04:49 1023 30.21 853 25.19 2.5 36.6 89 0.9 33.6 -88.6 -3.488
04:50 1024 30.24 853 25.19 2.6 36.7 89 0.9 33.6 -88.6 -3.488
04:51 1023 30.21 853 25.19 2.6 36.7 88 0.9 33.6 -88.6 -3.488
04:52 1023 30.21 853 25.19 2.7 36.8 88 0.9 33.6 -88.6 -3.488
04:53 1024 30.24 853 25.19 2.8 37 87 0.9 33.6 -88.6 -3.488
04:54 1023 30.21 853 25.19 3 37.4 86 0.9 33.6 -88.6 -3.488
04:55 1024 30.24 853 25.19 3.1 37.6 85 0.8 33.5 -88.6 -3.488
04:56 1023 30.21 853 25.19 3.2 37.8 84 0.7 33.3 -88.7 -3.492
04:57 1023 30.21 853 25.19 3.4 38.1 83 0.7 33.3 -88.7 -3.492
04:58 1024 30.24 853 25.19 3.5 38.3 82 0.7 33.3 -88.7 -3.492
04:59 1024 30.24 853 25.19 3.5 38.2 83 0.8 33.5 -88.8 -3.496
05:00 1023 30.21 853 25.19 3.3 38 84 0.8 33.5 -88.8 -3.496
05:01 1023 30.21 853 25.19 3.3 37.9 84 0.8 33.4 -88.8 -3.496
05:02 1024 30.24 853 25.19 3.1 37.7 85 0.8 33.4 -88.8 -3.496
05:03 1023 30.21 853 25.19 3 37.5 85 0.8 33.5 -88.8 -3.496
05:04 1023 30.21 853 25.19 2.9 37.3 86 0.9 33.5 -88.8 -3.496
05:05 1023 30.21 853 25.19 2.9 37.2 86 0.8 33.5 -88.8 -3.496
05:06 1023 30.21 853 25.19 2.8 37 86 0.7 33.3 -88.8 -3.496
05:07 1023 30.21 853 25.19 2.8 37 86 0.7 33.3 -88.8 -3.496
05:08 1023 30.21 853 25.19 2.9 37.2 86 0.8 33.4 -88.8 -3.496
05:09 1023 30.21 853 25.19 2.9 37.2 86 0.7 33.3 -88.9 -3.5
05:10 1023 30.21 853 25.19 2.9 37.2 85 0.7 33.2 -88.9 -3.5
05:11 1023 30.21 853 25.19 3 37.4 85 0.7 33.2 -88.9 -3.5
05:12 1023 30.21 853 25.19 3.2 37.7 83 0.6 33.1 -88.9 -3.5
05:13 1023 30.21 853 25.19 3.3 38 82 0.5 33 -88.9 -3.5
05:14 1023 30.21 853 25.19 3.6 38.4 81 0.5 33 -88.9 -3.5
05:15 1023 30.21 853 25.19 3.7 38.7 80 0.6 33.1 -88.9 -3.5
05:16 1023 30.21 853 25.19 3.8 38.9 80 0.6 33.2 -88.9 -3.5
05:17 1023 30.21 853 25.19 3.8 38.9 80 0.6 33.2 -89 -3.504
05:18 1023 30.21 853 25.19 3.8 38.9 80 0.7 33.2 -89 -3.504
05:19 1023 30.21 853 25.19 3.8 38.9 80 0.8 33.4 -89 -3.504
05:20 1023 30.21 853 25.19 3.7 38.7 81 0.7 33.3 -89 -3.504
05:21 1023 30.21 853 25.19 3.7 38.6 81 0.7 33.2 -89 -3.504
05:22 1023 30.21 853 25.19 3.6 38.6 81 0.7 33.2 -89 -3.504
05:23 1023 30.21 853 25.19 3.6 38.4 82 0.7 33.3 -89 -3.504
05:24 1023 30.21 853 25.19 3.5 38.2 82 0.7 33.3 -89 -3.504
05:25 1023 30.21 853 25.19 3.3 38 83 0.7 33.3 -89 -3.504
05:26 1023 30.21 853 25.19 3.2 37.7 84 0.7 33.2 -89 -3.504
05:27 1023 30.21 853 25.19 3 37.4 85 0.6 33.2 -89 -3.504
05:28 1023 30.21 853 25.19 2.9 37.1 85 0.6 33.1 -89 -3.504
05:29 1023 30.21 853 25.19 2.7 36.9 86 0.5 33 -89 -3.504
05:30 1023 30.21 853 25.19 2.5 36.5 86 0.5 32.8 -89 -3.504
05:31 1023 30.21 853 25.19 2.3 36.2 87 0.4 32.8 -89 -3.504
05:32 1023 30.21 852 25.16 2.1 35.8 88 0.3 32.6 -89 -3.504
05:33 1023 30.21 852 25.16 2 35.6 89 0.4 32.7 -89 -3.504
05:34 1023 30.21 852 25.16 2 35.6 89 0.4 32.7 -89 -3.504
05:35 1023 30.21 852 25.16 2 35.6 89 0.4 32.7 -89 -3.504
05:36 1023 30.21 852 25.16 2.1 35.7 88 0.4 32.6 -89 -3.504
05:37 1023 30.21 852 25.16 2 35.7 88 0.3 32.6 -89 -3.504
05:38 1023 30.21 852 25.16 2.1 35.7 88 0.4 32.6 -89 -3.504
05:39 1023 30.21 852 25.16 2 35.6 88 0.3 32.5 -89 -3.504
05:40 1023 30.21 852 25.16 2.1 35.7 88 0.3 32.6 -89 -3.504
05:41 1023 30.21 852 25.16 2.1 35.7 88 0.3 32.6 -89 -3.504
05:42 1023 30.21 852 25.16 2.1 35.7 88 0.3 32.5 -89 -3.504
05:43 1023 30.21 852 25.16 2.1 35.8 88 0.3 32.6 -89 -3.504
05:44 1023 30.21 852 25.16 2.1 35.8 88 0.3 32.6 -89 -3.504
05:45 1023 30.21 852 25.16 2.2 35.9 88 0.3 32.6 -89 -3.504
05:46 1023 30.21 852 25.16 2.2 35.9 88 0.3 32.6 -89 -3.504
05:47 1023 30.21 852 25.16 2.2 36 88 0.4 32.6 -89 -3.504
05:48 1023 30.21 852 25.16 2.3 36.1 87 0.4 32.7 -89 -3.504
05:49 1023 30.21 852 25.16 2.3 36.2 87 0.4 32.7 -89.1 -3.508
05:50 1023 30.21 852 25.16 2.4 36.3 87 0.5 32.8 -89.1 -3.508
05:51 1023 30.21 852 25.16 2.5 36.5 86 0.4 32.8 -89.1 -3.508
05:52 1023 30.21 852 25.16 2.6 36.8 86 0.5 32.9 -89.1 -3.508
05:53 1023 30.21 852 25.16 2.8 37 85 0.5 33 -89.1 -3.508
05:54 1023 30.21 852 25.16 2.9 37.3 84 0.6 33 -89.1 -3.508
05:55 1023 30.21 852 25.16 3.1 37.5 84 0.6 33.1 -89.1 -3.508
05:56 1023 30.21 852 25.16 3.3 37.9 83 0.6 33 -89.1 -3.508
05:57 1023 30.21 852 25.16 3.4 38.1 82 0.6 33.2 -89.2 -3.512
05:58 1023 30.21 852 25.16 3.7 38.6 81 0.7 33.3 -89.2 -3.512
05:59 1023 30.21 852 25.16 3.9 38.9 80 0.7 33.3 -89.2 -3.512
06:00 1023 30.21 852 25.16 4 39.3 79 0.8 33.4 -89.2 -3.512
06:01 1023 30.21 852 25.16 4.2 39.6 79 0.9 33.7 -89.2 -3.512
06:02 1023 30.21 852 25.16 4.2 39.6 80 1 33.9 -89.2 -3.512
06:03 1023 30.21 852 25.16 4.2 39.5 80 1.1 33.9 -89.2 -3.512
06:04 1023 30.21 852 25.16 4.2 39.5 80 1.1 33.9 -89.2 -3.512
06:05 1023 30.21 852 25.16 4.2 39.5 80 1 33.9 -89.2 -3.512
06:06 1023 30.21 852 25.16 4.3 39.7 79 1 33.8 -89.2 -3.512
06:07 1023 30.21 852 25.16 4.4 39.8 79 1 33.9 -89.2 -3.512
06:08 1023 30.21 852 25.16 4.5 40.1 79 1.1 34 -89.2 -3.512
06:09 1023 30.21 852 25.16 4.7 40.4 78 1.2 34.1 -89.2 -3.512
06:10 1023 30.21 852 25.16 4.8 40.6 78 1.2 34.1 -89.2 -3.512
06:11 1023 30.21 852 25.16 4.7 40.5 78 1.3 34.3 -89.2 -3.512
06:12 1023 30.21 852 25.16 4.6 40.3 79 1.3 34.3 -89.2 -3.512
06:13 1023 30.21 852 25.16 4.5 40.1 80 1.3 34.4 -89.2 -3.512
06:14 1023 30.21 852 25.16 4.3 39.8 81 1.4 34.6 -89.2 -3.512
06:15 1023 30.21 852 25.16 4.2 39.5 82 1.4 34.6 -89.2 -3.512
06:16 1023 30.21 852 25.16 4 39.2 82 1.3 34.4 -89.2 -3.512
06:17 1023 30.21 852 25.16 4 39.1 83 1.3 34.3 -89.2 -3.512
06:18 1023 30.21 852 25.16 4 39.2 83 1.3 34.3 -89.2 -3.512
06:19 1023 30.21 852 25.16 4 39.2 82 1.3 34.3 -89.2 -3.512
06:20 1023 30.21 852 25.16 4 39.2 82 1.3 34.3 -89.2 -3.512
06:21 1023 30.21 852 25.16 4 39.3 82 1.3 34.3 -89.2 -3.512
06:22 1023 30.21 852 25.16 4.1 39.3 83 1.3 34.4 -89.2 -3.512
06:23 1023 30.21 852 25.16 4 39.2 83 1.4 34.5 -89.1 -3.508
06:24 1023 30.21 852 25.16 3.9 39.1 84 1.4 34.6 -89.1 -3.508
06:25 1023 30.21 852 25.16 3.8 38.9 84 1.4 34.5 -89.1 -3.508
06:26 1023 30.21 852 25.16 3.8 38.8 84 1.4 34.5 -89.1 -3.508
06:27 1023 30.21 852 25.16 3.8 38.8 85 1.4 34.5 -89.1 -3.508
06:28 1023 30.21 852 25.16 3.8 38.8 85 1.4 34.6 -89.1 -3.508
06:29 1023 30.21 852 25.16 3.8 38.8 85 1.5 34.6 -89.1 -3.508
06:30 1023 30.21 852 25.16 3.8 38.8 85 1.5 34.7 -89.1 -3.508
06:31 1023 30.21 852 25.16 3.8 38.9 85 1.5 34.7 -89.1 -3.508
06:32 1023 30.21 852 25.16 3.9 39 85 1.7 35 -89.1 -3.508
06:33 1023 30.21 852 25.16 4 39.2 85 1.8 35.2 -89 -3.504
06:34 1023 30.21 852 25.16 4.1 39.3 85 1.8 35.2 -89 -3.504
06:35 1023 30.21 852 25.16 4.2 39.5 85 1.8 35.3 -89 -3.504
06:36 1023 30.21 852 25.16 4.3 39.7 84 1.8 35.3 -89 -3.504
06:37 1023 30.21 852 25.16 4.4 39.9 83 1.8 35.2 -89 -3.504
06:38 1023 30.21 852 25.16 4.5 40.2 83 1.9 35.5 -89 -3.504
06:39 1023 30.21 852 25.16 4.7 40.5 82 1.9 35.4 -89 -3.504
06:40 1023 30.21 852 25.16 4.8 40.7 83 2.1 35.8 -89 -3.504
06:41 1023 30.21 852 25.16 5 41 81 2 35.7 -89 -3.504
06:42 1023 30.21 852 25.16 5.2 41.3 81 2.1 35.8 -88.9 -3.5
06:43 1023 30.21 852 25.16 5.4 41.6 81 2.3 36.1 -88.9 -3.5
06:44 1023 30.21 852 25.16 5.5 41.9 79 2.2 36 -88.9 -3.5
06:45 1023 30.21 852 25.16 5.6 42.1 79 2.2 36 -88.9 -3.5
06:46 1023 30.21 852 25.16 5.7 42.2 79 2.3 36.1 -88.9 -3.5
06:47 1023 30.21 852 25.16 5.7 42.3 78 2.2 36 -88.9 -3.5
06:48 1023 30.21 852 25.16 5.8 42.5 78 2.3 36.2 -88.9 -3.5
06:49 1023 30.21 852 25.16 5.9 42.7 77 2.2 36 -88.8 -3.496
06:50 1023 30.21 852 25.16 6 42.8 78 2.4 36.3 -88.8 -3.496
06:51 1023 30.21 852 25.16 6.1 43 77 2.4 36.4 -88.8 -3.496
06:52 1023 30.21 852 25.16 6.2 43.1 77 2.5 36.6 -88.8 -3.496
06:53 1023 30.21 852 25.16 6.3 43.4 76 2.4 36.3 -88.8 -3.496
06:54 1023 30.21 852 25.16 6.4 43.5 75 2.3 36.2 -88.7 -3.492
06:55 1023 30.21 852 25.16 6.5 43.6 75 2.4 36.3 -88.7 -3.492
06:56 1023 30.21 852 25.16 6.5 43.7 75 2.4 36.3 -88.7 -3.492
06:57 1023 30.21 852 25.16 6.4 43.5 77 2.7 36.8 -88.7 -3.492
06:58 1023 30.21 852 25.16 6.4 43.5 77 2.6 36.7 -88.6 -3.488
06:59 1023 30.21 852 25.16 6.4 43.5 78 2.8 37 -88.6 -3.488
07:00 1023 30.21 852 25.16 6.4 43.6 77 2.7 36.9 -88.6 -3.488
07:01 1023 30.21 852 25.16 6.5 43.7 76 2.6 36.7 -88.6 -3.488
07:02 1023 30.21 852 25.16 6.6 43.9 74 2.4 36.3 -88.6 -3.488
07:03 1023 30.21 852 25.16 6.7 44.1 75 2.7 36.9 -88.6 -3.488
07:04 1023 30.21 852 25.16 6.9 44.4 75 2.7 36.9 -88.5 -3.484
07:05 1023 30.21 852 25.16 7.1 44.8 73 2.7 36.9 -88.5 -3.484
07:06 1023 30.21 852 25.16 7.3 45.1 74 3 37.4 -88.5 -3.484
07:07 1023 30.21 852 25.16 7.4 45.4 74 3 37.5 -88.5 -3.484
07:08 1023 30.21 852 25.16 7.6 45.6 75 3.3 38 -88.4 -3.48
07:09 1023 30.21 852 25.16 7.7 45.8 74 3.4 38.2 -88.4 -3.48
07:10 1023 30.21 852 25.16 7.9 46.1 74 3.5 38.4 -88.4 -3.48
07:11 1023 30.21 852 25.16 8 46.4 71 3.1 37.5 -88.3 -3.476
07:12 1023 30.21 852 25.16 8 46.5 70 2.9 37.2 -88.3 -3.476
07:13 1023 30.21 852 25.16 8.2 46.7 72 3.4 38.1 -88.3 -3.476
07:14 1023 30.21 852 25.16 8.3 46.9 70 3.2 37.7 -88.3 -3.476
07:15 1023 30.21 852 25.16 8.4 47.1 68 2.8 37 -88.3 -3.476
07:16 1023 30.21 852 25.16 8.5 47.3 68 3 37.3 -88.3 -3.476
07:17 1023 30.21 852 25.16 8.6 47.5 67 2.9 37.2 -88.3 -3.476
07:18 1023 30.21 852 25.16 8.7 47.6 69 3.3 37.9 -88.3 -3.476
07:19 1023 30.21 852 25.16 8.8 47.8 65 2.5 36.5 -88.3 -3.476
07:20 1023 30.21 852 25.16 8.9 48 66 3 37.4 -88.2 -3.472
07:21 1023 30.21 852 25.16 9 48.2 67 3.2 37.8 -88.2 -3.472
07:22 1023 30.21 852 25.16 9.1 48.4 65 3 37.4 -88.2 -3.472
07:23 1023 30.21 852 25.16 9.2 48.6 64 2.7 36.9 -88.2 -3.472
07:24 1023 30.21 852 25.16 9.3 48.8 64 2.9 37.2 -88.1 -3.469
07:25 1023 30.21 852 25.16 9.4 49 67 3.7 38.7 -88.1 -3.469
07:26 1023 30.21 852 25.16 9.5 49.1 66 3.6 38.4 -88 -3.465
07:27 1023 30.21 852 25.16 9.5 49.1 65 3.3 37.9 -88 -3.465
07:28 1023 30.21 852 25.16 9.6 49.2 67 3.7 38.7 -88 -3.465
07:29 1023 30.21 852 25.16 9.6 49.3 67 3.8 38.8 -88 -3.465
07:30 1023 30.21 852 25.16 9.6 49.4 67 3.7 38.7 -87.9 -3.461
07:31 1023 30.21 852 25.16 9.7 49.4 63 3.1 37.6 -87.9 -3.461
07:32 1023 30.21 852 25.16 9.7 49.5 66 3.6 38.5 -87.8 -3.457
07:33 1023 30.21 852 25.16 9.8 49.6 64 3.3 37.9 -87.8 -3.457
07:34 1023 30.21 852 25.16 9.8 49.6 65 3.6 38.4 -87.8 -3.457
07:35 1023 30.21 852 25.16 9.8 49.7 62 2.9 37.2 -87.7 -3.453
07:36 1023 30.21 852 25.16 10 49.9 64 3.5 38.4 -87.7 -3.453
07:37 1023 30.21 852 25.16 10 50 64 3.5 38.4 -87.7 -3.453
07:38 1023 30.21 852 25.16 10.1 50.2 64 3.6 38.6 -87.6 -3.449
07:39 1023 30.21 852 25.16 10.2 50.3 63 3.4 38.1 -87.6 -3.449
07:40 1023 30.21 852 25.16 10.2 50.3 64 3.6 38.6 -87.5 -3.445
07:41 1023 30.21 852 25.16 10.2 50.4 64 3.7 38.6 -87.5 -3.445
07:42 1023 30.21 852 25.16 10.3 50.5 63 3.6 38.5 -87.4 -3.441
07:43 1023 30.21 852 25.16 10.3 50.5 62 3.3 38 -87.4 -3.441
07:44 1023 30.21 852 25.16 10.3 50.6 64 3.8 38.9 -87.4 -3.441
07:45 1023 30.21 852 25.16 10.4 50.8 63 3.8 38.8 -87.3 -3.437
07:46 1023 30.21 852 25.16 10.5 50.9 59 2.9 37.2 -87.3 -3.437
07:47 1023 30.21 852 25.16 10.5 51 63 3.8 38.9 -87.2 -3.433
07:48 1023 30.21 852 25.16 10.6 51.1 60 3.2 37.7 -87.2 -3.433
07:49 1023 30.21 852 25.16 10.7 51.2 64 4.1 39.5 -87.1 -3.429
07:50 1023 30.21 852 25.16 10.8 51.5 62 3.9 39 -87.1 -3.429
07:51 1023 30.21 852 25.16 10.8 51.5 60 3.4 38.1 -87 -3.425
07:52 1023 30.21 852 25.16 10.9 51.5 62 3.8 38.8 -87 -3.425
07:53 1023 30.21 852 25.16 11 51.8 61 3.8 38.9 -86.9 -3.421
07:54 1023 30.21 852 25.16 11 51.9 62 4 39.2 -86.8 -3.417
07:55 1023 30.21 852 25.16 11.1 51.9 63 4.3 39.7 -86.8 -3.417
07:56 1023 30.21 852 25.16 11.1 52 61 4 39.2 -86.7 -3.413
07:57 1023 30.21 852 25.16 11.2 52.2 60 3.7 38.6 -86.7 -3.413
07:58 1023 30.21 852 25.16 11.3 52.4 57 3.1 37.6 -86.6 -3.409
07:59 1023 30.21 852 25.16 11.5 52.7 59 3.8 38.9 -86.5 -3.406
08:00 1023 30.21 852 25.16 11.6 52.8 61 4.3 39.8 -86.5 -3.406
08:01 1023 30.21 852 25.16 11.7 53.1 59 4 39.3 -86.5 -3.406
08:02 1023 30.21 852 25.16 11.9 53.4 58 4 39.2 -86.4 -3.402
08:03 1023 30.21 852 25.16 12.1 53.7 59 4.4 39.8 -86.4 -3.402
08:04 1023 30.21 852 25.16 12.1 53.9 57 4 39.2 -86.3 -3.398
08:05 1023 30.21 852 25.16 12.2 54 56 3.9 39 -86.3 -3.398
08:06 1023 30.21 852 25.16 12.2 54 59 4.6 40.3 -86.2 -3.394
08:07 1023 30.21 852 25.16 12.3 54.1 54 3.4 38 -86.1 -3.39
08:08 1023 30.21 852 25.16 12.3 54.1 55 3.5 38.3 -86.1 -3.39
08:09 1023 30.21 852 25.16 12.3 54.1 54 3.2 37.8 -86 -3.386
08:10 1023 30.21 852 25.16 12.2 53.9 57 4.1 39.3 -85.9 -3.382
08:11 1023 30.21 852 25.16 12.2 53.9 56 3.8 38.8 -85.9 -3.382
08:12 1023 30.21 852 25.16 12.2 53.9 58 4.3 39.8 -85.9 -3.382
08:13 1023 30.21 852 25.16 12.2 53.9 62 5.1 41.1 -85.9 -3.382
08:14 1023 30.21 852 25.16 12.2 54 62 5.2 41.3 -85.8 -3.378
08:15 1023 30.21 852 25.16 12.3 54.2 58 4.3 39.7 -85.7 -3.374
08:16 1023 30.21 852 25.16 12.3 54.1 57 4.2 39.6 -85.7 -3.374
08:17 1023 30.21 852 25.16 12.3 54.1 63 5.5 41.9 -85.6 -3.37
08:18 1023 30.21 852 25.16 12.3 54.2 61 5 41 -85.5 -3.366
08:19 1023 30.21 852 25.16 12.4 54.4 56 4 39.3 -85.4 -3.362
08:20 1023 30.21 852 25.16 12.4 54.3 58 4.5 40.2 -85.3 -3.358
08:21 1023 30.21 852 25.16 12.4 54.3 54 3.5 38.2 -85.2 -3.354
08:22 1023 30.21 852 25.16 12.3 54.1 61 4.9 40.9 -85.1 -3.35
08:23 1023 30.21 852 25.16 12.2 54 56 3.8 38.8 -85.1 -3.35
08:24 1023 30.21 852 25.16 12.2 54 55 3.5 38.4 -85 -3.346
08:25 1023 30.21 852 25.16 12.2 53.9 59 4.5 40.1 -84.9 -3.343
08:26 1023 30.21 852 25.16 12.2 54 60 4.8 40.6 -84.9 -3.343
08:27 1023 30.21 852 25.16 12.3 54.2 57 4.1 39.5 -84.8 -3.339
08:28 1023 30.21 852 25.16 12.4 54.2 56 3.8 38.8 -84.7 -3.335
08:29 1023 30.21 852 25.16 12.3 54.2 54 3.4 38.2 -84.7 -3.335
08:30 1023 30.21 852 25.16 12.2 54 58 4.2 39.6 -84.6 -3.331
08:31 1023 30.21 852 25.16 12.2 54 59 4.4 39.9 -84.6 -3.331
08:32 1023 30.21 852 25.16 12.3 54.1 58 4.2 39.6 -84.5 -3.327
08:33 1023 30.21 852 25.16 12.4 54.2 59 4.6 40.3 -84.4 -3.323
08:34 1023 30.21 852 25.16 12.5 54.4 61 5.2 41.3 -84.4 -3.323
08:35 1023 30.21 852 25.16 12.6 54.6 61 5.2 41.4 -84.3 -3.319
08:36 1023 30.21 852 25.16 12.6 54.7 54 3.5 38.4 -84.2 -3.315
08:37 1023 30.21 852 25.16 12.6 54.6 55 3.7 38.7 -84.2 -3.315
08:38 1023 30.21 852 25.16 12.6 54.7 55 4 39.2 -84.1 -3.311
08:39 1023 30.21 852 25.16 12.6 54.7 60 5.1 41.1 -84 -3.307
08:40 1023 30.21 852 25.16 12.7 54.8 57 4.5 40 -84 -3.307
08:41 1023 30.21 852 25.16 12.7 54.8 51 2.8 37 -83.9 -3.303
08:42 1023 30.21 852 25.16 12.7 54.9 56 4.3 39.7 -83.8 -3.299
08:43 1023 30.21 852 25.16 12.8 55.1 57 4.7 40.4 -83.8 -3.299
08:44 1023 30.21 852 25.16 12.9 55.2 55 4.1 39.4 -83.7 -3.295
08:45 1023 30.21 852 25.16 12.9 55.3 52 3.5 38.3 -83.7 -3.295
08:46 1023 30.21 852 25.16 12.9 55.3 57 4.6 40.3 -83.6 -3.291
08:47 1023 30.21 852 25.16 13.1 55.5 54 4.1 39.4 -83.6 -3.291
08:48 1023 30.21 852 25.16 13.2 55.7 57 4.9 40.9 -83.5 -3.287
08:49 1023 30.21 852 25.16 13.3 55.9 55 4.6 40.2 -83.5 -3.287
08:50 1023 30.21 852 25.16 13.4 56 56 4.9 40.7 -83.4 -3.283
08:51 1023 30.21 852 25.16 13.4 56.1 50 3.3 38 -83.3 -3.28
08:52 1023 30.21 852 25.16 13.4 56.1 56 4.7 40.5 -83.3 -3.28
08:53 1023 30.21 852 25.16 13.4 56.1 56 4.9 40.8 -83.2 -3.276
08:54 1023 30.21 852 25.16 13.4 56.2 55 4.6 40.3 -83.1 -3.272
08:55 1023 30.21 852 25.16 13.4 56.2 54 4.5 40 -83.1 -3.272
08:56 1023 30.21 852 25.16 13.4 56 54 4.2 39.5 -83 -3.268
08:57 1023 30.21 852 25.16 13.3 55.9 59 5.5 42 -82.9 -3.264
08:58 1023 30.21 852 25.16 13.3 55.9 59 5.5 41.9 -82.9 -3.264
08:59 1023 30.21 852 25.16 13.3 55.9 63 6.4 43.5 -82.9 -3.264
09:00 1023 30.21 852 25.16 13.4 56.1 60 5.9 42.6 -82.8 -3.26
09:01 1023 30.21 852 25.16 13.5 56.2 58 5.5 41.8 -82.8 -3.26
09:02 1023 30.21 852 25.16 13.4 56.1 60 5.9 42.6 -82.8 -3.26
09:03 1023 30.21 852 25.16 13.3 55.9 57 5 41.1 -82.8 -3.26
09:04 1023 30.21 852 25.16 13.1 55.5 65 6.6 44 -82.8 -3.26
09:05 1023 30.21 852 25.16 13 55.5 59 5.3 41.6 -82.8 -3.26
09:06 1023 30.21 852 25.16 13 55.4 59 5.3 41.5 -82.8 -3.26
09:07 1022 30.18 852 25.16 13 55.3 60 5.6 42 -82.8 -3.26
09:08 1022 30.18 852 25.16 12.9 55.2 60 5.3 41.6 -82.7 -3.256
09:09 1022 30.18 852 25.16 12.8 55.1 60 5.2 41.4 -82.7 -3.256
09:10 1022 30.18 852 25.16 12.9 55.1 57 4.5 40.1 -82.7 -3.256
09:11 1023 30.21 852 25.16 12.8 55.1 61 5.5 42 -82.6 -3.252
09:12 1022 30.18 852 25.16 12.8 55.1 62 5.8 42.4 -82.6 -3.252
09:13 1022 30.18 852 25.16 12.9 55.2 58 4.8 40.7 -82.5 -3.248
09:14 1022 30.18 852 25.16 12.8 55 59 5 41 -82.5 -3.248
09:15 1022 30.18 852 25.16 12.7 54.9 59 4.9 40.9 -82.5 -3.248
09:16 1022 30.18 852 25.16 12.7 54.8 61 5.3 41.6 -82.4 -3.244
09:17 1022 30.18 852 25.16 12.6 54.7 61 5.3 41.5 -82.4 -3.244
09:18 1022 30.18 852 25.16 12.6 54.6 64 6.1 43 -82.4 -3.244
09:19 1022 30.18 852 25.16 12.6 54.7 63 5.8 42.4 -82.3 -3.24
09:20 1022 30.18 852 25.16 12.7 54.8 60 5.2 41.4 -82.3 -3.24
09:21 1022 30.18 852 25.16 12.6 54.7 58 4.6 40.3 -82.2 -3.236
09:22 1022 30.18 852 25.16 12.5 54.6 65 6.3 43.3 -82.2 -3.236
09:23 1022 30.18 852 25.16 12.6 54.6 59 4.8 40.7 -82.2 -3.236
09:24 1022 30.18 852 25.16 12.7 54.9 60 5.1 41.2 -82.1 -3.232
09:25 1022 30.18 852 25.16 12.8 55 62 5.7 42.3 -82 -3.228
09:26 1022 30.18 852 25.16 12.8 55.1 56 4.3 39.7 -82 -3.228
09:27 1022 30.18 852 25.16 12.8 55.1 62 5.7 42.2 -81.9 -3.224
09:28 1022 30.18 852 25.16 12.9 55.3 59 5.3 41.5 -81.9 -3.224
09:29 1022 30.18 852 25.16 12.9 55.3 55 4.3 39.7 -81.8 -3.22
09:30 1022 30.18 852 25.16 12.9 55.3 59 5.1 41.1 -81.7 -3.217
09:31 1022 30.18 852 25.16 12.9 55.3 59 5.1 41.3 -81.7 -3.217
09:32 1022 30.18 852 25.16 12.9 55.2 59 5.2 41.3 -81.6 -3.213
09:33 1022 30.18 852 25.16 12.8 55 59 5.1 41.2 -81.6 -3.213
09:34 1022 30.18 852 25.16 12.8 55 61 5.6 42 -81.6 -3.213
09:35 1022 30.18 852 25.16 12.8 55.1 60 5.2 41.4 -81.5 -3.209
09:36 1022 30.18 852 25.16 12.9 55.2 60 5.4 41.7 -81.5 -3.209
09:37 1022 30.18 852 25.16 13 55.4 59 5.2 41.3 -81.4 -3.205
09:38 1022 30.18 852 25.16 13.1 55.6 58 5 41 -81.4 -3.205
09:39 1022 30.18 852 25.16 13.2 55.8 61 5.8 42.4 -81.3 -3.201
09:40 1022 30.18 852 25.16 13.2 55.8 54 4.2 39.5 -81.2 -3.197
09:41 1022 30.18 852 25.16 13.3 55.9 56 4.7 40.5 -81.2 -3.197
09:42 1022 30.18 851 25.13 13.2 55.8 55 4.4 39.9 -81.1 -3.193
09:43 1022 30.18 852 25.16 13.2 55.8 55 4.5 40.1 -81.1 -3.193
09:44 1022 30.18 851 25.13 13.2 55.8 60 5.7 42.3 -81 -3.189
09:45 1022 30.18 851 25.13 13.3 56 61 6 42.7 -81 -3.189
09:46 1022 30.18 851 25.13 13.4 56.1 60 5.9 42.7 -80.9 -3.185
09:47 1022 30.18 851 25.13 13.4 56 55 4.7 40.4 -80.9 -3.185
09:48 1022 30.18 851 25.13 13.4 56 54 4.4 39.9 -80.8 -3.181
09:49 1022 30.18 851 25.13 13.4 56.1 57 5 41 -80.8 -3.181
09:50 1022 30.18 851 25.13 13.4 56.1 59 5.5 42 -80.7 -3.177
09:51 1022 30.18 851 25.13 13.4 56.1 59 5.7 42.2 -80.6 -3.173
09:52 1022 30.18 851 25.13 13.6 56.5 58 5.6 42.1 -80.5 -3.169
09:53 1022 30.18 851 25.13 13.6 56.5 59 5.9 42.5 -80.4 -3.165
09:54 1022 30.18 851 25.13 13.6 56.5 57 5.3 41.5 -80.3 -3.161
09:55 1022 30.18 851 25.13 13.6 56.5 55 4.8 40.7 -80.3 -3.161
09:56 1022 30.18 851 25.13 13.6 56.4 58 5.6 42 -80.2 -3.157
09:57 1022 30.18 851 25.13 13.6 56.6 53 4.3 39.7 -80.1 -3.154
09:58 1022 30.18 851 25.13 13.6 56.6 56 5.1 41.2 -80.1 -3.154
09:59 1022 30.18 851 25.13 13.7 56.7 60 6.2 43.2 -80 -3.15
10:00 1022 30.18 851 25.13 13.9 56.9 57 5.4 41.8 -79.9 -3.146
10:01 1022 30.18 851 25.13 13.8 56.9 51 4 39.3 -79.8 -3.142
10:02 1022 30.18 851 25.13 13.8 56.8 57 5.5 41.9 -79.8 -3.142
10:03 1022 30.18 851 25.13 13.8 56.9 58 5.7 42.3 -79.7 -3.138
10:04 1022 30.18 851 25.13 13.9 57 56 5.4 41.8 -79.6 -3.134
10:05 1022 30.18 851 25.13 14 57.1 56 5.4 41.8 -79.5 -3.13
10:06 1022 30.18 851 25.13 13.9 57.1 57 5.6 42.2 -79.4 -3.126
10:07 1022 30.18 851 25.13 14 57.2 53 4.7 40.5 -79.4 -3.126
10:08 1022 30.18 851 25.13 14 57.2 51 4 39.3 -79.3 -3.122
10:09 1022 30.18 851 25.13 14.1 57.3 51 4.1 39.3 -79.2 -3.118
10:10 1022 30.18 851 25.13 14.1 57.4 59 6.4 43.5 -79.1 -3.114
10:11 1022 30.18 851 25.13 14.1 57.4 56 5.4 41.8 -79 -3.11
10:12 1022 30.18 851 25.13 14 57.3 53 4.8 40.6 -79 -3.11
10:13 1022 30.18 851 25.13 14 57.1 59 6.2 43.2 -78.9 -3.106
10:14 1022 30.18 851 25.13 14 57.2 56 5.5 41.9 -78.9 -3.106
10:15 1022 30.18 851 25.13 14.1 57.3 57 5.8 42.5 -78.8 -3.102
10:16 1022 30.18 851 25.13 14.1 57.4 62 7.1 44.8 -78.7 -3.098
10:17 1022 30.18 851 25.13 14.2 57.6 61 6.9 44.4 -78.6 -3.094
10:18 1022 30.18 851 25.13 14.4 57.8 52 4.7 40.4 -78.5 -3.091
10:19 1022 30.18 851 25.13 14.4 57.9 58 6.4 43.4 -78.4 -3.087
10:20 1022 30.18 851 25.13 14.4 58 54 5.4 41.8 -78.3 -3.083
10:21 1022 30.18 851 25.13 14.4 58 59 6.6 43.9 -78.2 -3.079
10:22 1022 30.18 851 25.13 14.5 58.2 58 6.5 43.8 -78.1 -3.075
10:23 1022 30.18 851 25.13 14.7 58.4 61 7.2 45 -77.9 -3.067
10:24 1022 30.18 851 25.13 14.7 58.5 51 4.8 40.6 -77.8 -3.063
10:25 1022 30.18 851 25.13 14.7 58.5 61 7.4 45.3 -77.7 -3.059
10:26 1022 30.18 851 25.13 14.7 58.5 60 7 44.7 -77.6 -3.055
10:27 1022 30.18 851 25.13 14.8 58.7 55 6.1 43 -77.4 -3.047
10:28 1022 30.18 851 25.13 14.8 58.7 57 6.4 43.5 -77.4 -3.047
10:29 1022 30.18 851 25.13 14.8 58.6 60 7.2 45 -77.3 -3.043
10:30 1022 30.18 851 25.13 14.7 58.4 53 5.3 41.5 -77.2 -3.039
10:31 1022 30.18 851 25.13 14.6 58.3 57 6.3 43.3 -77.1 -3.035
10:32 1022 30.18 851 25.13 14.6 58.3 58 6.5 43.7 -77 -3.031
10:33 1022 30.18 851 25.13 14.6 58.2 58 6.5 43.7 -76.9 -3.028
10:34 1022 30.18 851 25.13 14.6 58.2 55 5.7 42.2 -76.8 -3.024
10:35 1022 30.18 851 25.13 14.6 58.4 49 4.2 39.6 -76.7 -3.02
10:36 1022 30.18 851 25.13 14.6 58.4 56 6 42.8 -76.6 -3.016
10:37 1022 30.18 851 25.13 14.7 58.5 57 6.2 43.2 -76.5 -3.012
10:38 1022 30.18 851 25.13 14.8 58.6 54 5.6 42.1 -76.4 -3.008
10:39 1022 30.18 851 25.13 14.8 58.7 58 6.6 43.9 -76.3 -3.004
10:40 1022 30.18 851 25.13 14.9 58.9 57 6.6 43.8 -76.2 -3
10:41 1022 30.18 851 25.13 15 59.1 59 7.1 44.7 -76 -2.992
10:42 1022 30.18 851 25.13 15 59.1 60 7.5 45.5 -76 -2.992
10:43 1022 30.18 851 25.13 15.1 59.2 57 6.8 44.3 -75.9 -2.988
10:44 1022 30.18 851 25.13 15.2 59.3 58 7.1 44.7 -75.8 -2.984
10:45 1022 30.18 851 25.13 15.2 59.4 63 8.3 47 -75.7 -2.98
10:46 1022 30.18 851 25.13 15.3 59.6 55 6.4 43.5 -75.6 -2.976
10:47 1022 30.18 851 25.13 15.3 59.5 53 5.9 42.7 -75.5 -2.972
10:48 1022 30.18 851 25.13 15.3 59.5 48 4.4 40 -75.4 -2.969
10:49 1022 30.18 851 25.13 15.3 59.5 56 6.7 44 -75.3 -2.965
10:50 1022 30.18 851 25.13 15.3 59.5 62 8 46.4 -75.2 -2.961
10:51 1022 30.18 851 25.13 15.4 59.6 57 7 44.7 -75.1 -2.957
10:52 1022 30.18 851 25.13 15.5 59.9 55 6.6 43.8 -75 -2.953
10:53 1022 30.18 851 25.13 15.5 59.8 50 5.2 41.3 -75 -2.953
10:54 1022 30.18 851 25.13 15.3 59.6 55 6.4 43.6 -74.9 -2.949
10:55 1022 30.18 851 25.13 15.4 59.7 52 5.7 42.3 -74.9 -2.949
10:56 1022 30.18 851 25.13 15.5 59.8 50 5.1 41.1 -74.7 -2.941
10:57 1022 30.18 851 25.13 15.4 59.8 50 5.1 41.2 -74.6 -2.937
10:58 1022 30.18 851 25.13 15.4 59.8 59 7.6 45.6 -74.5 -2.933
10:59 1022 30.18 851 25.13 15.5 60 57 7 44.7 -74.4 -2.929
11:00 1022 30.18 851 25.13 15.6 60.1 56 6.8 44.3 -74.3 -2.925
11:01 1022 30.18 851 25.13 15.7 60.2 57 7.4 45.3 -74.2 -2.921
11:02 1022 30.18 851 25.13 15.8 60.4 61 8.4 47.1 -74.1 -2.917
11:03 1022 30.18 851 25.13 16 60.7 50 5.8 42.4 -74 -2.913
11:04 1022 30.18 851 25.13 16 60.8 58 7.7 45.9 -73.9 -2.909
11:05 1022 30.18 851 25.13 16 60.7 56 7.3 45.2 -73.7 -2.902
11:06 1022 30.18 851 25.13 16 60.8 55 7.1 44.8 -73.6 -2.898
11:07 1022 30.18 851 25.13 16 60.7 56 7.4 45.3 -73.5 -2.894
11:08 1022 30.18 851 25.13 15.9 60.7 50 5.5 41.9 -73.4 -2.89
11:09 1021 30.15 851 25.13 15.9 60.5 55 6.9 44.5 -73.3 -2.886
11:10 1021 30.15 851 25.13 15.9 60.7 49 5.4 41.7 -73.2 -2.882
11:11 1021 30.15 851 25.13 16 60.7 54 6.7 44.1 -73.1 -2.878
11:12 1021 30.15 851 25.13 16 60.9 52 6.2 43.2 -73 -2.874
11:13 1021 30.15 851 25.13 16.2 61.2 56 7.6 45.7 -72.9 -2.87
11:14 1021 30.15 851 25.13 16.3 61.4 53 6.8 44.3 -72.7 -2.862
11:15 1021 30.15 851 25.13 16.3 61.3 46 4.8 40.7 -72.7 -2.862
11:16 1021 30.15 851 25.13 16.2 61.1 50 5.8 42.4 -72.6 -2.858
11:17 1021 30.15 851 25.13 16.1 61 56 7.4 45.4 -72.4 -2.85
11:18 1021 30.15 851 25.13 16.1 61 57 7.6 45.7 -72.3 -2.846
11:19 1021 30.15 851 25.13 16.1 60.9 55 7.2 44.9 -72.2 -2.843
11:20 1021 30.15 851 25.13 16.1 61 57 7.7 45.9 -72.1 -2.839
11:21 1021 30.15 851 25.13 16.2 61.2 55 7.4 45.3 -72 -2.835
11:22 1021 30.15 851 25.13 16.2 61.2 53 6.6 44 -71.9 -2.831
11:23 1021 30.15 851 25.13 16.3 61.4 47 5.2 41.3 -71.8 -2.827
11:24 1021 30.15 851 25.13 16.4 61.5 58 8.2 46.8 -71.7 -2.823
11:25 1021 30.15 850 25.1 16.5 61.7 48 5.6 42 -71.6 -2.819
11:26 1021 30.15 850 25.1 16.6 61.9 48 5.6 42.1 -71.5 -2.815
11:27 1021 30.15 850 25.1 16.7 62.1 52 7 44.6 -71.3 -2.807
11:28 1021 30.15 850 25.1 16.8 62.3 56 8.1 46.7 -71.2 -2.803
11:29 1021 30.15 850 25.1 16.9 62.4 48 5.8 42.4 -71.2 -2.803
11:30 1021 30.15 850 25.1 16.9 62.4 54 7.7 45.8 -71.1 -2.799
11:31 1021 30.15 850 25.1 16.9 62.4 54 7.7 45.8 -70.9 -2.791
11:32 1021 30.15 850 25.1 16.8 62.2 48 5.9 42.6 -70.8 -2.787
11:33 1021 30.15 850 25.1 16.8 62.2 56 8 46.4 -70.7 -2.783
11:34 1021 30.15 850 25.1 16.9 62.5 56 8.2 46.7 -70.6 -2.78
11:35 1021 30.15 850 25.1 16.9 62.4 53 7.4 45.3 -70.4 -2.772
11:36 1021 30.15 850 25.1 16.8 62.2 53 7.3 45.2 -70.3 -2.768
11:37 1021 30.15 850 25.1 16.9 62.4 57 8.4 47.1 -70.2 -2.764
11:38 1021 30.15 850 25.1 17 62.5 47 5.8 42.4 -70.1 -2.76
11:39 1021 30.15 850 25.1 16.9 62.4 60 9.3 48.7 -70.1 -2.76
11:40 1021 30.15 850 25.1 16.9 62.5 59 8.8 47.9 -69.96 -2.754
11:41 1021 30.15 850 25.1 17 62.6 59 9.1 48.4 -69.8 -2.748
11:42 1021 30.15 850 25.1 17.1 62.8 47 6 42.7 -69.69 -2.744
11:43 1021 30.15 850 25.1 17.1 62.8 49 6.5 43.6 -69.67 -2.743
11:44 1021 30.15 850 25.1 17 62.7 48 6 42.9 -69.62 -2.741
11:45 1021 30.15 850 25.1 17.1 62.8 52 7.2 45 -69.5 -2.736
11:46 1021 30.15 850 25.1 17.2 62.9 48 6.3 43.4 -69.34 -2.73
11:47 1021 30.15 850 25.1 17.2 62.9 53 7.7 45.8 -69.14 -2.722
11:48 1021 30.15 850 25.1 17.1 62.8 65 10.5 50.8 -69.14 -2.722
11:49 1021 30.15 850 25.1 17.3 63.1 51 7.1 44.8 -68.9 -2.713
11:50 1021 30.15 850 25.1 17.3 63.1 52 7.3 45.2 -68.74 -2.706
11:51 1021 30.15 850 25.1 17.3 63.2 56 8.5 47.4 -68.56 -2.699
11:52 1021 30.15 850 25.1 17.4 63.4 45 5.5 41.9 -68.43 -2.694
11:53 1021 30.15 850 25.1 17.5 63.5 55 8.4 47.1 -68.3 -2.689
11:54 1021 30.15 850 25.1 17.5 63.5 45 5.4 41.7 -68.19 -2.685
11:55 1021 30.15 850 25.1 17.3 63.2 49 6.7 44 -68.09 -2.681
11:56 1021 30.15 850 25.1 17.3 63.2 46 5.8 42.4 -67.97 -2.676
11:57 1021 30.15 850 25.1 17.3 63.1 57 8.7 47.6 -67.85 -2.671
11:58 1021 30.15 850 25.1 17.3 63.2 47 6.1 43 -67.7 -2.665
11:59 1021 30.15 850 25.1 17.2 63 46 5.7 42.2 -67.62 -2.662
12:00 1021 30.15 850 25.1 17.3 63.1 49 6.6 43.9 -67.5 -2.657
12:01 1021 30.15 850 25.1 17.4 63.2 47 6.2 43.1 -67.38 -2.653
12:02 1021 30.15 850 25.1 17.4 63.4 61 9.9 49.7 -67.44 -2.655
12:03 1021 30.15 850 25.1 17.7 63.8 51 7.4 45.3 -67.17 -2.644
12:04 1021 30.15 850 25.1 17.7 63.9 46 6 42.7 -67.01 -2.638
12:05 1021 30.15 850 25.1 17.8 64.1 58 9.4 49 -66.88 -2.633
12:06 1021 30.15 850 25.1 18 64.4 49 7.3 45.2 -66.76 -2.628
12:07 1021 30.15 850 25.1 18.1 64.6 50 7.7 45.9 -66.6 -2.622
12:08 1021 30.15 850 25.1 18 64.4 52 8.1 46.6 -66.51 -2.619
12:09 1021 30.15 850 25.1 18 64.4 49 7.3 45.2 -66.42 -2.615
12:10 1021 30.15 850 25.1 18 64.3 48 7 44.6 -66.33 -2.611
12:11 1021 30.15 850 25.1 18 64.4 50 7.5 45.6 -66.21 -2.607
12:12 1021 30.15 850 25.1 18 64.5 47 6.7 44.1 -66.07 -2.601
12:13 1021 30.15 850 25.1 18 64.4 49 7.4 45.3 -65.95 -2.596
12:14 1021 30.15 850 25.1 17.9 64.3 46 6.3 43.4 -65.84 -2.592
12:15 1021 30.15 850 25.1 17.9 64.3 45 6.1 42.9 -65.72 -2.587
12:16 1021 30.15 850 25.1 17.9 64.1 54 8.5 47.3 -65.59 -2.582
12:17 1021 30.15 850 25.1 17.9 64.2 43 5.2 41.3 -65.48 -2.578
12:18 1021 30.15 850 25.1 18 64.4 55 9 48.1 -65.39 -2.574
12:19 1021 30.15 850 25.1 18.1 64.6 45 6.1 43 -65.29 -2.57
12:20 1021 30.15 850 25.1 18.2 64.7 47 6.7 44.1 -65.21 -2.567
12:21 1021 30.15 850 25.1 18.2 64.8 56 9.4 49 -65.07 -2.562
12:22 1021 30.15 850 25.1 18.3 65 48 7.3 45.1 -64.95 -2.557
12:23 1021 30.15 850 25.1 18.4 65.1 53 8.6 47.5 -64.81 -2.552
12:24 1021 30.15 850 25.1 18.4 65.1 50 7.8 46 -64.69 -2.547
12:25 1021 30.15 850 25.1 18.4 65 53 8.8 47.8 -64.73 -2.548
12:26 1021 30.15 850 25.1 18.4 65.1 59 10.3 50.5 -64.61 -2.544
12:27 1021 30.15 850 25.1 18.6 65.5 53 9 48.2 -64.4 -2.535
12:28 1021 30.15 850 25.1 18.7 65.6 42 5.5 42 -64.31 -2.532
12:29 1021 30.15 850 25.1 18.6 65.5 53 9.1 48.4 -64.17 -2.526
12:30 1021 30.15 850 25.1 18.7 65.7 53 9 48.2 -64.04 -2.521
12:31 1021 30.15 850 25.1 18.7 65.7 48 7.6 45.8 -63.94 -2.517
12:32 1021 30.15 850 25.1 18.7 65.6 49 7.7 45.9 -63.84 -2.513
12:33 1021 30.15 850 25.1 18.7 65.7 50 8.2 46.8 -63.76 -2.51
12:34 1020 30.12 850 25.1 18.7 65.7 48 7.6 45.6 -63.69 -2.507
12:35 1020 30.12 850 25.1 18.8 65.8 56 9.8 49.6 -63.59 -2.504
12:36 1020 30.12 850 25.1 18.8 65.8 41 5.3 41.5 -63.51 -2.5
12:37 1020 30.12 850 25.1 18.9 66 45 6.7 44.1 -63.38 -2.495
12:38 1020 30.12 850 25.1 19 66.1 49 8.2 46.8 -63.25 -2.49
12:39 1020 30.12 850 25.1 18.9 66 43 6.2 43.1 -63.18 -2.487
12:40 1020 30.12 850 25.1 18.9 66.1 51 8.7 47.6 -63.07 -2.483
12:41 1020 30.12 850 25.1 19 66.1 48 7.9 46.1 -62.98 -2.48
12:42 1020 30.12 850 25.1 18.9 66 45 6.7 44.1 -62.89 -2.476
12:43 1020 30.12 849 25.07 19 66.2 49 8.2 46.8 -62.8 -2.472
12:44 1020 30.12 849 25.07 18.9 65.9 53 9.3 48.8 -62.68 -2.468
12:45 1020 30.12 849 25.07 18.8 65.9 54 9.4 49 -62.59 -2.464
12:46 1020 30.12 849 25.07 18.8 65.9 47 7.6 45.6 -62.5 -2.461
12:47 1020 30.12 849 25.07 18.8 65.9 49 8 46.5 -62.43 -2.458
12:48 1020 30.12 849 25.07 18.8 65.9 54 9.5 49.1 -62.34 -2.454
12:49 1020 30.12 849 25.07 18.9 66 49 8.2 46.7 -62.24 -2.45
12:50 1020 30.12 849 25.07 19 66.2 52 9.1 48.3 -62.19 -2.448
12:51 1020 30.12 849 25.07 19.2 66.6 52 9.1 48.4 -62.09 -2.444
12:52 1020 30.12 849 25.07 19.3 66.8 43 6.5 43.7 -62.02 -2.442
12:53 1020 30.12 849 25.07 19.3 66.7 41 5.9 42.6 -61.95 -2.439
12:54 1020 30.12 849 25.07 19.3 66.7 45 7.3 45.1 -61.86 -2.435
12:55 1020 30.12 849 25.07 19.3 66.7 52 9.4 48.9 -61.76 -2.431
12:56 1020 30.12 849 25.07 19.3 66.8 46 7.6 45.6 -61.71 -2.43
12:57 1020 30.12 849 25.07 19.3 66.7 52 9.3 48.8 -61.65 -2.427
12:58 1020 30.12 849 25.07 19.3 66.7 48 8.1 46.6 -61.59 -2.425
12:59 1020 30.12 849 25.07 19.3 66.8 50 8.7 47.6 -61.52 -2.422
13:00 1020 30.12 849 25.07 19.4 66.8 51 9.1 48.4 -61.43 -2.419
13:01 1020 30.12 849 25.07 19.4 67 52 9.4 48.9 -61.35 -2.415
13:02 1020 30.12 849 25.07 19.5 67.1 46 7.7 45.8 -61.28 -2.413
13:03 1020 30.12 849 25.07 19.5 67.1 52 9.5 49.2 -61.22 -2.41
13:04 1020 30.12 849 25.07 19.6 67.2 46 7.9 46.2 -61.16 -2.408
13:05 1020 30.12 849 25.07 19.6 67.3 44 7 44.6 -61.1 -2.406
13:06 1020 30.12 849 25.07 19.6 67.2 43 6.7 44.1 -61.04 -2.403
13:07 1020 30.12 849 25.07 19.6 67.2 50 8.9 48.1 -60.98 -2.401
13:08 1020 30.12 849 25.07 19.7 67.4 47 8.1 46.6 -60.9 -2.398
13:09 1020 30.12 849 25.07 19.7 67.4 44 7.4 45.3 -60.83 -2.395
13:10 1020 30.12 849 25.07 19.7 67.4 49 8.7 47.6 -60.78 -2.393
13:11 1020 30.12 849 25.07 19.7 67.4 48 8.5 47.3 -60.73 -2.391
13:12 1020 30.12 849 25.07 19.7 67.4 50 9.2 48.5 -60.66 -2.388
13:13 1020 30.12 849 25.07 19.7 67.5 45 7.6 45.7 -60.6 -2.386
13:14 1020 30.12 849 25.07 19.8 67.6 43 7.1 44.8 -60.56 -2.384
13:15 1020 30.12 849 25.07 19.7 67.5 44 7.2 45 -60.49 -2.381
13:16 1020 30.12 849 25.07 19.8 67.6 52 9.7 49.5 -60.44 -2.38
13:17 1020 30.12 849 25.07 19.8 67.7 51 9.6 49.3 -60.43 -2.379
13:18 1020 30.12 849 25.07 19.8 67.7 46 7.9 46.2 -60.37 -2.377
13:19 1020 30.12 849 25.07 19.9 67.7 48 8.7 47.6 -60.33 -2.375
13:20 1020 30.12 849 25.07 19.8 67.7 45 7.8 46.1 -60.26 -2.372
13:21 1020 30.12 849 25.07 19.8 67.6 52 9.7 49.5 -60.2 -2.37
13:22 1020 30.12 849 25.07 19.8 67.6 41 6.3 43.3 -60.12 -2.367
13:23 1020 30.12 849 25.07 19.8 67.7 42 6.6 43.9 -60.08 -2.365
13:24 1020 30.12 849 25.07 19.9 67.9 42 6.6 43.9 -60.02 -2.363
13:25 1020 30.12 849 25.07 20 68.1 47 8.6 47.5 -59.96 -2.361
13:26 1020 30.12 849 25.07 20 68 44 7.4 45.4 -59.89 -2.358
13:27 1020 30.12 849 25.07 20 68 53 10.3 50.5 -59.86 -2.357
13:28 1020 30.12 849 25.07 20 67.9 45 7.7 45.8 -59.82 -2.355
13:29 1020 30.12 849 25.07 20 67.9 49 9.1 48.3 -59.78 -2.354
13:30 1020 30.12 849 25.07 20.1 68.1 39 6 42.8 -59.72 -2.351
13:31 1020 30.12 849 25.07 20.1 68.1 41 6.6 43.9 -59.69 -2.35
13:32 1020 30.12 849 25.07 20.1 68.1 48 9 48.2 -59.69 -2.35
13:33 1020 30.12 849 25.07 20.2 68.3 42 7.1 44.7 -59.61 -2.347
13:34 1020 30.12 849 25.07 20.3 68.5 39 6.1 43 -59.51 -2.343
13:35 1020 30.12 849 25.07 20.3 68.5 44 7.8 46 -59.47 -2.341
13:36 1020 30.12 849 25.07 20.3 68.5 39 6 42.7 -59.42 -2.339
13:37 1020 30.12 849 25.07 20.4 68.6 40 6.4 43.5 -59.35 -2.337
13:38 1020 30.12 849 25.07 20.5 68.9 39 6.1 43 -59.28 -2.334
13:39 1020 30.12 849 25.07 20.5 68.9 51 10.2 50.4 -59.24 -2.332
13:40 1019 30.09 849 25.07 20.6 69 41 7 44.5 -59.2 -2.331
13:41 1019 30.09 849 25.07 20.5 69 42 7.3 45.2 -59.15 -2.329
13:42 1019 30.09 849 25.07 20.6 69.1 42 7.5 45.5 -59.1 -2.327
13:43 1019 30.09 849 25.07 20.8 69.4 49 9.8 49.7 -59.06 -2.325
13:44 1019 30.09 849 25.07 20.9 69.7 42 7.5 45.6 -59.05 -2.325
13:45 1019 30.09 849 25.07 20.9 69.7 43 8 46.3 -58.93 -2.32
13:46 1019 30.09 849 25.07 21 69.7 48 9.5 49.2 -58.84 -2.317
13:47 1019 30.09 849 25.07 21 69.9 46 9.1 48.3 -58.74 -2.313
13:48 1019 30.09 849 25.07 21.1 70 42 7.8 46 -58.65 -2.309
13:49 1019 30.09 849 25.07 21.1 70.1 46 9.2 48.5 -58.6 -2.307
13:50 1019 30.09 849 25.07 21.2 70.2 42 8 46.4 -58.54 -2.305
13:51 1019 30.09 849 25.07 21.2 70.2 39 6.8 44.2 -58.46 -2.302
13:52 1019 30.09 849 25.07 21.2 70.2 43 8.3 46.9 -58.38 -2.298
13:53 1019 30.09 849 25.07 21.1 70 37 6.2 43.1 -58.32 -2.296
13:54 1019 30.09 849 25.07 21 69.8 40 7.2 45 -58.25 -2.293
13:55 1019 30.09 849 25.07 21 69.8 35 5.2 41.4 -58.19 -2.291
13:56 1019 30.09 849 25.07 21.1 70 40 7.2 45 -58.11 -2.288
13:57 1019 30.09 849 25.07 21.2 70.1 45 9 48.3 -58.01 -2.284
13:58 1019 30.09 849 25.07 21.2 70.2 39 7 44.7 -57.94 -2.281
13:59 1019 30.09 849 25.07 21.2 70.2 54 11.8 53.2 -57.84 -2.277
14:00 1019 30.09 849 25.07 21.4 70.4 43 8.5 47.2 -57.73 -2.273
14:01 1019 30.09 849 25.07 21.4 70.5 44 8.8 47.8 -57.67 -2.27
14:02 1019 30.09 849 25.07 21.4 70.5 46 9.3 48.7 -57.59 -2.267
14:03 1019 30.09 849 25.07 21.4 70.4 43 8.3 46.9 -57.49 -2.263
14:04 1019 30.09 849 25.07 21.3 70.4 42 8.2 46.7 -57.42 -2.261
14:05 1019 30.09 849 25.07 21.2 70.2 45 9.1 48.4 -57.37 -2.259
14:06 1019 30.09 849 25.07 21.2 70.1 49 10.2 50.3 -57.29 -2.256
14:07 1019 30.09 848 25.04 21.2 70.2 41 7.5 45.5 -57.18 -2.251
14:08 1019 30.09 848 25.04 21.3 70.3 41 7.8 46 -57.1 -2.248
14:09 1019 30.09 848 25.04 21.3 70.4 34 5.1 41.2 -57.08 -2.247
14:10 1019 30.09 848 25.04 21.3 70.3 46 9.5 49 -56.99 -2.244
14:11 1019 30.09 848 25.04 21.3 70.4 42 8.2 46.8 -56.89 -2.24
14:12 1019 30.09 848 25.04 21.5 70.7 45 9.4 48.9 -56.86 -2.239
14:13 1019 30.09 848 25.04 21.6 70.9 39 7.3 45.1 -56.68 -2.231
14:14 1019 30.09 848 25.04 21.6 70.9 40 7.6 45.7 -56.57 -2.227
14:15 1019 30.09 848 25.04 21.5 70.8 37 6.3 43.3 -56.52 -2.225
14:16 1019 30.09 848 25.04 21.6 70.8 41 8.1 46.5 -56.49 -2.224
14:17 1019 30.09 848 25.04 21.7 71 33 4.8 40.7 -56.36 -2.219
14:18 1019 30.09 848 25.04 21.8 71.2 45 9.5 49 -56.21 -2.213
14:19 1019 30.09 848 25.04 21.8 71.3 40 7.6 45.8 -56.1 -2.209
14:20 1019 30.09 848 25.04 21.9 71.5 38 7.2 44.9 -55.98 -2.204
14:21 1019 30.09 848 25.04 22 71.6 37 6.9 44.4 -55.88 -2.2
14:22 1019 30.09 848 25.04 22 71.5 37 7 44.5 -55.83 -2.198
14:23 1019 30.09 848 25.04 21.9 71.4 43 8.8 47.9 -55.79 -2.196
14:24 1019 30.09 848 25.04 21.9 71.4 48 10.4 50.8 -55.71 -2.193
14:25 1019 30.09 848 25.04 21.9 71.4 46 9.8 49.7 -55.6 -2.189
14:26 1019 30.09 848 25.04 21.9 71.3 35 6.1 42.9 -55.5 -2.185
14:27 1019 30.09 848 25.04 21.8 71.3 45 9.4 48.9 -55.38 -2.18
14:28 1019 30.09 848 25.04 21.8 71.3 32 4.6 40.4 -55.27 -2.176
14:29 1019 30.09 848 25.04 21.9 71.4 40 7.9 46.2 -55.14 -2.171
14:30 1019 30.09 848 25.04 21.9 71.4 38 7.1 44.7 -55.03 -2.167
14:31 1019 30.09 848 25.04 21.9 71.4 50 11.1 52 -54.93 -2.163
14:32 1019 30.09 848 25.04 21.9 71.5 40 8 46.4 -54.85 -2.159
14:33 1019 30.09 848 25.04 21.9 71.4 41 8.2 46.8 -54.82 -2.158
14:34 1019 30.09 848 25.04 22 71.5 44 9.2 48.5 -54.8 -2.157
14:35 1019 30.09 848 25.04 21.9 71.4 45 9.5 49 -54.51 -2.146
14:36 1019 30.09 848 25.04 21.9 71.5 44 9.1 48.5 -54.41 -2.142
14:37 1019 30.09 848 25.04 22 71.5 42 8.8 47.9 -54.33 -2.139
14:38 1019 30.09 848 25.04 22.1 71.7 38 7.3 45.2 -54.23 -2.135
14:39 1019 30.09 848 25.04 22.2 72 44 9.4 49 -54.08 -2.129
14:40 1019 30.09 848 25.04 22.3 72.1 41 8.5 47.3 -53.95 -2.124
14:41 1019 30.09 848 25.04 22.2 72 42 9 48.2 -53.85 -2.12
14:42 1019 30.09 848 25.04 22.3 72.2 42 8.9 47.9 -53.74 -2.116
14:43 1019 30.09 848 25.04 22.3 72.2 41 8.8 47.8 -53.64 -2.112
14:44 1019 30.09 848 25.04 22.3 72.1 47 10.5 50.9 -53.54 -2.108
14:45 1019 30.09 848 25.04 22.3 72.2 42 9 48.3 -53.43 -2.104
14:46 1019 30.09 848 25.04 22.4 72.3 46 10.4 50.7 -53.33 -2.1
14:47 1019 30.09 848 25.04 22.5 72.6 39 8.2 46.7 -53.22 -2.095
14:48 1019 30.09 848 25.04 22.5 72.5 35 6.5 43.7 -53.12 -2.091
14:49 1019 30.09 848 25.04 22.3 72.2 42 9.1 48.3 -53 -2.087
14:50 1019 30.09 848 25.04 22.3 72.1 45 9.9 49.8 -52.89 -2.082
14:51 1019 30.09 848 25.04 22.3 72.1 32 5.2 41.3 -52.76 -2.077
14:52 1019 30.09 848 25.04 22.2 72 35 6.3 43.4 -52.69 -2.074
14:53 1019 30.09 848 25.04 22.2 71.9 44 9.7 49.4 -52.46 -2.065
14:54 1019 30.09 848 25.04 22.3 72.2 33 5.5 41.8 -52.26 -2.057
14:55 1019 30.09 848 25.04 22.3 72.2 39 7.8 46 -52.17 -2.054
14:56 1019 30.09 848 25.04 22.4 72.3 31 4.6 40.3 -52.08 -2.05
14:57 1019 30.09 848 25.04 22.4 72.4 44 9.9 49.8 -51.94 -2.045
14:58 1019 30.09 848 25.04 22.5 72.4 34 5.8 42.5 -51.82 -2.04
14:59 1019 30.09 848 25.04 22.3 72.2 36 6.9 44.4 -51.73 -2.037
15:00 1019 30.09 848 25.04 22.3 72.1 41 8.4 47.2 -51.59 -2.031
15:01 1019 30.09 848 25.04 22.4 72.4 36 6.9 44.4 -51.43 -2.025
15:02 1019 30.09 848 25.04 22.4 72.4 34 5.9 42.6 -51.33 -2.021
15:03 1019 30.09 848 25.04 22.4 72.2 37 7.3 45.2 -51.19 -2.015
15:04 1019 30.09 848 25.04 22.3 72.2 37 7.3 45.1 -51.06 -2.01
15:05 1019 30.09 848 25.04 22.3 72.2 40 8.3 46.9 -50.91 -2.004
15:06 1019 30.09 848 25.04 22.3 72.1 37 7.1 44.8 -50.73 -1.997
15:07 1019 30.09 848 25.04 22.4 72.3 35 6.2 43.2 -50.58 -1.991
15:08 1019 30.09 848 25.04 22.4 72.3 44 9.7 49.4 -50.57 -1.991
15:09 1019 30.09 848 25.04 22.4 72.3 32 5.1 41.2 -50.66 -1.994
15:10 1019 30.09 848 25.04 22.4 72.3 30 4.4 39.9 -50.32 -1.981
15:11 1019 30.09 848 25.04 22.4 72.2 41 8.7 47.6 -50.17 -1.975
15:12 1019 30.09 848 25.04 22.5 72.5 36 6.7 44.1 -50.04 -1.97
15:13 1019 30.09 848 25.04 22.5 72.6 32 5.4 41.8 -49.98 -1.968
15:14 1019 30.09 848 25.04 22.7 72.9 40 8.5 47.3 -49.86 -1.963
15:15 1019 30.09 848 25.04 22.9 73.2 31 5 41 -49.69 -1.956
15:16 1019 30.09 848 25.04 23.1 73.6 34 6.8 44.2 -49.55 -1.951
15:17 1019 30.09 848 25.04 23 73.3 32 5.8 42.4 -49.45 -1.947
15:18 1019 30.09 848 25.04 22.8 73 34 6.4 43.5 -49.35 -1.943
15:19 1019 30.09 848 25.04 22.6 72.8 34 6 42.9 -49.25 -1.939
15:20 1019 30.09 848 25.04 22.6 72.7 34 6.2 43.2 -49.14 -1.935
15:21 1019 30.09 848 25.04 22.6 72.7 35 6.6 43.9 -49.11 -1.933
15:22 1019 30.09 848 25.04 22.6 72.7 37 7.5 45.4 -48.88 -1.924
15:23 1019 30.09 848 25.04 22.6 72.6 35 6.7 44 -48.81 -1.922
15:24 1019 30.09 848 25.04 22.5 72.4 31 4.7 40.5 -48.73 -1.919
15:25 1019 30.09 848 25.04 22.4 72.4 40 8.2 46.8 -48.6 -1.913
15:26 1019 30.09 848 25.04 22.6 72.8 34 6.2 43.2 -48.42 -1.906
15:27 1019 30.09 848 25.04 22.7 72.9 40 8.5 47.3 -48.27 -1.9
15:28 1019 30.09 848 25.04 22.7 72.9 37 7.6 45.7 -48.16 -1.896
15:29 1019 30.09 848 25.04 22.8 73.1 41 9.1 48.4 -48.06 -1.892
15:30 1019 30.09 848 25.04 22.8 73 30 4.7 40.4 -47.99 -1.889
15:31 1019 30.09 848 25.04 22.8 73 41 8.9 48.1 -47.89 -1.885
15:32 1019 30.09 848 25.04 22.9 73.3 39 8.6 47.5 -47.76 -1.88
15:33 1019 30.09 848 25.04 23 73.3 35 7 44.6 -47.65 -1.876
15:34 1019 30.09 848 25.04 23.1 73.5 45 10.6 51 -47.7 -1.878
15:35 1018 30.06 848 25.04 23.2 73.7 41 9.5 49 -47.51 -1.87
15:36 1018 30.06 848 25.04 23.1 73.7 41 9.2 48.5 -47.29 -1.862
15:37 1019 30.09 848 25.04 23.1 73.6 36 7.5 45.5 -47.16 -1.857
15:38 1018 30.06 848 25.04 22.8 73 44 10 49.9 -47.07 -1.853
15:39 1018 30.06 848 25.04 22.7 72.8 36 7.2 44.9 -46.96 -1.849
15:40 1018 30.06 848 25.04 22.5 72.5 38 7.8 46 -46.86 -1.845
15:41 1018 30.06 848 25.04 22.4 72.3 42 9.1 48.4 -46.72 -1.839
15:42 1018 30.06 848 25.04 22.3 72.2 37 7.3 45.1 -46.62 -1.835
15:43 1018 30.06 848 25.04 22 71.7 40 7.8 46.1 -46.51 -1.831
15:44 1018 30.06 848 25.04 21.8 71.2 40 7.9 46.2 -46.4 -1.827
15:45 1018 30.06 848 25.04 21.7 71 38 6.8 44.2 -46.3 -1.823
15:46 1018 30.06 848 25.04 21.6 70.8 38 6.7 44.1 -46.2 -1.819
15:47 1018 30.06 848 25.04 21.6 70.8 40 7.6 45.6 -46.12 -1.816
15:48 1018 30.06 848 25.04 21.6 70.9 39 7.1 44.8 -46.09 -1.815
15:49 1018 30.06 848 25.04 21.6 70.9 38 7 44.6 -46.02 -1.812
15:50 1018 30.06 848 25.04 21.7 71.1 41 8 46.4 -45.98 -1.81
15:51 1018 30.06 848 25.04 21.7 71 40 7.8 46.1 -45.96 -1.809
15:52 1018 30.06 848 25.04 21.7 71.1 49 10.6 51.1 -45.95 -1.809
15:53 1018 30.06 848 25.04 21.8 71.2 43 8.7 47.7 -45.97 -1.81
15:54 1018 30.06 848 25.04 21.7 71 43 8.8 47.9 -45.97 -1.81
15:55 1018 30.06 848 25.04 21.6 70.9 47 10 50 -45.96 -1.809
15:56 1018 30.06 848 25.04 21.6 71 39 7.3 45.2 -45.98 -1.81
15:57 1018 30.06 848 25.04 21.7 71 40 7.7 45.8 -46.03 -1.812
15:58 1018 30.06 848 25.04 21.6 70.9 46 9.5 49.1 -46.04 -1.813
15:59 1018 30.06 848 25.04 21.7 71 42 8.3 46.9 -46.1 -1.815
16:00 1018 30.06 848 25.04 21.7 71 39 7.4 45.3 -46.1 -1.815
16:01 1018 30.06 848 25.04 21.7 71.1 37 6.5 43.7 -46.14 -1.817
16:02 1018 30.06 848 25.04 21.8 71.2 39 7.3 45.1 -46.22 -1.82
16:03 1018 30.06 848 25.04 21.9 71.3 38 7 44.6 -46.23 -1.82
16:04 1018 30.06 848 25.04 21.9 71.3 37 6.9 44.4 -46.23 -1.82
16:05 1018 30.06 848 25.04 21.9 71.4 43 8.9 48.1 -46.23 -1.82
16:06 1018 30.06 847 25.01 21.8 71.3 43 8.7 47.7 -46.26 -1.821
16:07 1018 30.06 847 25.01 21.8 71.2 39 7.3 45.1 -46.35 -1.825
16:08 1018 30.06 847 25.01 21.7 71.1 43 8.8 47.9 -46.37 -1.826
16:09 1018 30.06 847 25.01 21.8 71.2 42 8.6 47.5 -46.47 -1.83
16:10 1018 30.06 847 25.01 21.8 71.2 40 7.9 46.2 -46.52 -1.831
16:11 1018 30.06 847 25.01 21.8 71.3 45 9.7 49.4 -46.57 -1.833
16:12 1018 30.06 847 25.01 21.8 71.3 38 7.2 45 -46.58 -1.834
16:13 1018 30.06 847 25.01 21.8 71.2 40 7.7 45.8 -46.61 -1.835
16:14 1018 30.06 847 25.01 21.7 71.1 40 7.8 46.1 -46.64 -1.836
16:15 1018 30.06 847 25.01 21.7 71.1 45 9.3 48.7 -46.63 -1.836
16:16 1018 30.06 847 25.01 21.7 71 42 8.3 46.9 -46.7 -1.839
16:17 1018 30.06 847 25.01 21.6 70.9 44 8.9 48.1 -46.77 -1.841
16:18 1018 30.06 847 25.01 21.7 71 43 8.6 47.6 -46.78 -1.842
16:19 1018 30.06 847 25.01 21.9 71.3 45 9.7 49.4 -46.78 -1.842
16:20 1018 30.06 847 25.01 22.1 71.7 42 8.6 47.5 -46.85 -1.844
16:21 1018 30.06 847 25.01 22.2 71.9 36 6.5 43.6 -46.92 -1.847
16:22 1018 30.06 847 25.01 22.2 71.9 38 7.3 45.1 -46.98 -1.85
16:23 1018 30.06 847 25.01 22.1 71.8 43 9.1 48.4 -46.94 -1.848
16:24 1018 30.06 847 25.01 22.1 71.8 43 9 48.3 -46.92 -1.847
16:25 1018 30.06 847 25.01 22.1 71.8 44 9.5 49.1 -46.97 -1.849
16:26 1018 30.06 847 25.01 22 71.5 42 8.7 47.6 -46.99 -1.85
16:27 1018 30.06 847 25.01 21.9 71.4 46 9.9 49.9 -46.98 -1.85
16:28 1018 30.06 847 25.01 21.7 71.1 40 7.9 46.2 -47.03 -1.852
16:29 1018 30.06 847 25.01 21.6 70.9 37 6.5 43.8 -47.09 -1.854
16:30 1018 30.06 847 25.01 21.4 70.6 39 7 44.6 -47.11 -1.855
16:31 1018 30.06 847 25.01 21.3 70.4 39 7 44.6 -47.12 -1.855
16:32 1018 30.06 847 25.01 21.2 70.1 41 7.6 45.7 -47.14 -1.856
16:33 1018 30.06 847 25.01 21.1 70 42 7.9 46.2 -47.16 -1.857
16:34 1018 30.06 847 25.01 21.1 70 43 8.3 46.9 -47.14 -1.856
16:35 1018 30.06 847 25.01 21.1 69.9 44 8.5 47.3 -47.18 -1.857
16:36 1018 30.06 847 25.01 21 69.7 43 8.2 46.7 -47.27 -1.861
16:37 1018 30.06 847 25.01 20.8 69.4 44 8.1 46.6 -47.32 -1.863
16:38 1018 30.06 847 25.01 20.7 69.2 42 7.6 45.6 -47.39 -1.866
16:39 1018 30.06 847 25.01 20.7 69.2 46 8.7 47.7 -47.44 -1.868
16:40 1018 30.06 847 25.01 20.6 69.1 44 8.2 46.7 -47.52 -1.871
16:41 1018 30.06 847 25.01 20.6 69.1 45 8.3 46.9 -47.61 -1.874
16:42 1018 30.06 847 25.01 20.6 69 44 7.9 46.2 -47.69 -1.878
16:43 1018 30.06 847 25.01 20.6 69.1 45 8.5 47.3 -47.79 -1.881
16:44 1018 30.06 847 25.01 20.6 69.1 45 8.4 47.2 -47.92 -1.887
16:45 1018 30.06 847 25.01 20.6 69.1 44 8 46.4 -48.02 -1.891
16:46 1018 30.06 847 25.01 20.6 69.1 41 6.9 44.4 -48.14 -1.895
16:47 1018 30.06 847 25.01 20.6 69 44 8 46.5 -48.24 -1.899
16:48 1018 30.06 847 25.01 20.6 69.1 47 9.1 48.4 -48.34 -1.903
16:49 1018 30.06 847 25.01 20.7 69.2 44 8.2 46.7 -48.48 -1.909
16:50 1018 30.06 847 25.01 20.8 69.4 44 8.4 47.1 -48.6 -1.913
16:51 1018 30.06 847 25.01 20.9 69.5 44 8.4 47.2 -48.7 -1.917
16:52 1018 30.06 847 25.01 20.9 69.7 43 8 46.4 -48.8 -1.921
16:53 1018 30.06 847 25.01 20.9 69.6 44 8.4 47 -48.94 -1.927
16:54 1018 30.06 847 25.01 20.8 69.4 46 9 48.2 -49.04 -1.931
16:55 1018 30.06 847 25.01 20.7 69.3 42 7.3 45.2 -49.17 -1.936
16:56 1018 30.06 847 25.01 20.7 69.3 46 8.8 47.9 -49.29 -1.941
16:57 1018 30.06 847 25.01 20.7 69.2 44 8.1 46.6 -49.42 -1.946
16:58 1018 30.06 847 25.01 20.6 69.1 43 7.6 45.7 -49.5 -1.949
16:59 1018 30.06 847 25.01 20.7 69.2 46 8.8 47.8 -49.59 -1.952
17:00 1018 30.06 847 25.01 20.7 69.3 42 7.5 45.5 -49.72 -1.957
17:01 1018 30.06 847 25.01 20.8 69.5 42 7.7 45.8 -49.86 -1.963
17:02 1018 30.06 847 25.01 20.8 69.5 43 7.9 46.1 -49.97 -1.967
17:03 1018 30.06 847 25.01 20.8 69.4 44 8.3 46.9 -50.07 -1.971
17:04 1018 30.06 847 25.01 20.7 69.2 46 8.9 48 -50.16 -1.975
17:05 1018 30.06 847 25.01 20.6 69.1 46 8.7 47.6 -50.24 -1.978
17:06 1018 30.06 847 25.01 20.6 69 47 9 48.3 -50.33 -1.981
17:07 1018 30.06 847 25.01 20.5 68.9 42 7.2 45 -50.47 -1.987
17:08 1018 30.06 847 25.01 20.5 69 41 7 44.6 -50.59 -1.992
17:09 1018 30.06 847 25.01 20.6 69.1 43 7.8 46.1 -50.71 -1.996
17:10 1018 30.06 847 25.01 20.6 69 44 8 46.4 -50.79 -2
17:11 1018 30.06 847 25.01 20.5 69 42 7.4 45.4 -50.88 -2.003
17:12 1018 30.06 847 25.01 20.6 69 41 7 44.7 -50.99 -2.007
17:13 1018 30.06 847 25.01 20.6 69.1 42 7.2 45 -51.08 -2.011
17:14 1018 30.06 847 25.01 20.6 69.1 46 8.8 47.8 -51.16 -2.014
17:15 1018 30.06 847 25.01 20.6 69.1 42 7.6 45.6 -51.27 -2.019
17:16 1018 30.06 847 25.01 20.6 69.2 43 7.8 46 -51.37 -2.022
17:17 1018 30.06 847 25.01 20.7 69.2 43 7.9 46.2 -51.44 -2.025
17:18 1018 30.06 847 25.01 20.7 69.3 43 7.9 46.2 -51.53 -2.029
17:19 1018 30.06 847 25.01 20.8 69.4 43 7.9 46.2 -51.61 -2.032
17:20 1018 30.06 847 25.01 20.8 69.5 45 8.7 47.6 -51.66 -2.034
17:21 1018 30.06 847 25.01 20.8 69.4 47 9.1 48.5 -51.72 -2.036
17:22 1018 30.06 847 25.01 20.7 69.3 45 8.6 47.5 -51.77 -2.038
17:23 1018 30.06 847 25.01 20.8 69.4 42 7.6 45.7 -51.87 -2.042
17:24 1018 30.06 847 25.01 20.7 69.2 40 6.7 44.1 -51.95 -2.045
17:25 1018 30.06 847 25.01 20.7 69.2 42 7.5 45.5 -52.04 -2.049
17:26 1018 30.06 847 25.01 20.6 69 46 8.8 47.9 -52.08 -2.05
17:27 1018 30.06 847 25.01 20.5 68.9 43 7.5 45.5 -52.16 -2.054
17:28 1018 30.06 847 25.01 20.5 68.9 44 7.9 46.1 -52.24 -2.057
17:29 1018 30.06 847 25.01 20.4 68.8 47 8.8 47.9 -52.29 -2.059
17:30 1018 30.06 847 25.01 20.4 68.7 44 7.8 46.1 -52.35 -2.061
17:31 1018 30.06 847 25.01 20.3 68.6 45 8.2 46.7 -52.4 -2.063
17:32 1018 30.06 847 25.01 20.3 68.6 44 7.8 46.1 -52.47 -2.066
17:33 1018 30.06 847 25.01 20.4 68.7 41 6.9 44.3 -52.57 -2.07
17:34 1018 30.06 847 25.01 20.5 68.8 44 8.1 46.5 -52.65 -2.073
17:35 1018 30.06 847 25.01 20.4 68.8 44 7.8 46.1 -52.73 -2.076
17:36 1018 30.06 847 25.01 20.5 68.9 42 7.2 44.9 -52.83 -2.08
17:37 1018 30.06 847 25.01 20.6 69 41 6.9 44.4 -52.91 -2.083
17:38 1018 30.06 847 25.01 20.6 69.1 42 7.5 45.5 -53 -2.087
17:39 1018 30.06 847 25.01 20.5 69 43 7.7 45.8 -53.06 -2.089
17:40 1018 30.06 847 25.01 20.6 69 40 6.6 43.9 -53.15 -2.093
17:41 1018 30.06 847 25.01 20.6 69 40 6.5 43.7 -53.22 -2.095
17:42 1018 30.06 847 25.01 20.6 69.1 44 8.2 46.8 -53.28 -2.098
17:43 1018 30.06 847 25.01 20.6 69 45 8.4 47.2 -53.33 -2.1
17:44 1018 30.06 847 25.01 20.6 69 45 8.5 47.3 -53.38 -2.102
17:45 1018 30.06 847 25.01 20.5 69 43 7.8 46.1 -53.45 -2.104
17:46 1018 30.06 847 25.01 20.6 69.1 45 8.5 47.2 -53.5 -2.106
17:47 1018 30.06 847 25.01 20.6 69.1 43 7.7 45.9 -53.56 -2.109
17:48 1018 30.06 847 25.01 20.6 69.1 41 7 44.6 -53.64 -2.112
17:49 1018 30.06 847 25.01 20.6 69.1 41 7.2 44.9 -53.68 -2.113
17:50 1018 30.06 847 25.01 20.6 69 44 7.9 46.2 -53.74 -2.116
17:51 1018 30.06 847 25.01 20.5 68.9 44 7.9 46.2 -53.81 -2.119
17:52 1018 30.06 847 25.01 20.5 68.9 42 7.3 45.1 -53.86 -2.12
17:53 1018 30.06 847 25.01 20.5 68.9 40 6.5 43.8 -53.93 -2.123
17:54 1018 30.06 847 25.01 20.5 68.9 43 7.7 45.9 -53.99 -2.126
17:55 1018 30.06 847 25.01 20.6 69 43 7.6 45.7 -54.03 -2.127
17:56 1018 30.06 847 25.01 20.7 69.2 42 7.6 45.6 -54.06 -2.128
17:57 1018 30.06 847 25.01 20.8 69.5 40 6.8 44.2 -54.1 -2.13
17:58 1018 30.06 847 25.01 20.9 69.7 40 6.9 44.5 -54.15 -2.132
17:59 1018 30.06 847 25.01 21 69.8 41 7.3 45.2 -54.19 -2.133
18:00 1018 30.06 847 25.01 20.9 69.6 41 7.4 45.3 -54.26 -2.136
18:01 1018 30.06 847 25.01 20.9 69.6 43 8.1 46.7 -54.26 -2.136
18:02 1018 30.06 847 25.01 20.9 69.6 42 7.8 46 -54.32 -2.139
18:03 1018 30.06 847 25.01 20.9 69.6 40 7.1 44.9 -54.36 -2.14
18:04 1018 30.06 847 25.01 21 69.8 42 7.6 45.7 -54.4 -2.142
18:05 1018 30.06 847 25.01 21.1 69.9 41 7.6 45.6 -54.4 -2.142
18:06 1018 30.06 847 25.01 21.1 70 38 6.4 43.5 -54.4 -2.142
18:07 1018 30.06 847 25.01 21.2 70.2 41 7.5 45.5 -54.4 -2.142
18:08 1018 30.06 847 25.01 21.3 70.3 37 6 42.9 -54.47 -2.144
18:09 1018 30.06 847 25.01 21.3 70.3 38 6.7 44.1 -54.47 -2.144
18:10 1018 30.06 847 25.01 21.3 70.4 39 6.9 44.4 -54.47 -2.144
18:11 1018 30.06 847 25.01 21.3 70.3 38 6.6 44 -54.47 -2.144
18:12 1018 30.06 847 25.01 21.2 70.2 41 7.5 45.5 -54.47 -2.144
18:13 1018 30.06 847 25.01 21.1 70 39 6.9 44.4 -54.43 -2.143
18:14 1018 30.06 847 25.01 21 69.9 39 6.8 44.3 -54.42 -2.143
18:15 1018 30.06 847 25.01 21 69.8 40 6.9 44.4 -54.4 -2.142
18:16 1018 30.06 847 25.01 21 69.8 39 6.8 44.2 -54.4 -2.142
18:17 1018 30.06 847 25.01 21 69.8 40 7.1 44.7 -54.4 -2.142
18:18 1018 30.06 847 25.01 21.1 69.9 41 7.4 45.4 -54.4 -2.142
18:19 1018 30.06 847 25.01 21.1 70 40 7.3 45.1 -54.4 -2.142
18:20 1018 30.06 847 25.01 21.1 70 42 8 46.4 -54.47 -2.144
18:21 1018 30.06 847 25.01 21.1 70 40 7.1 44.8 -54.47 -2.144
18:22 1018 30.06 847 25.01 21.1 70 39 6.9 44.5 -54.47 -2.144
18:23 1018 30.06 847 25.01 21.1 70 39 7 44.6 -54.47 -2.144
18:24 1018 30.06 847 25.01 21.1 69.9 42 7.7 45.8 -54.47 -2.144
18:25 1018 30.06 847 25.01 21 69.8 38 6.4 43.5 -54.47 -2.144
18:26 1018 30.06 847 25.01 20.9 69.7 40 7.1 44.8 -54.52 -2.146
18:27 1018 30.06 847 25.01 20.8 69.5 41 7.3 45.1 -54.53 -2.147
18:28 1018 30.06 847 25.01 20.7 69.3 38 5.9 42.6 -54.59 -2.149
18:29 1018 30.06 847 25.01 20.7 69.3 40 6.7 44.1 -54.6 -2.15
18:30 1018 30.06 847 25.01 20.7 69.3 37 5.8 42.4 -54.6 -2.15
18:31 1018 30.06 847 25.01 20.8 69.4 38 6 42.8 -54.6 -2.15
18:32 1018 30.06 847 25.01 20.8 69.5 41 7.4 45.4 -54.6 -2.15
18:33 1018 30.06 847 25.01 20.9 69.6 40 7 44.7 -54.6 -2.15
18:34 1018 30.06 847 25.01 20.9 69.7 39 6.5 43.7 -54.57 -2.148
18:35 1018 30.06 847 25.01 21 69.8 38 6.5 43.6 -54.6 -2.15
18:36 1018 30.06 847 25.01 21.1 69.9 38 6.2 43.2 -54.6 -2.15
18:37 1018 30.06 847 25.01 21.1 69.9 37 5.8 42.5 -54.66 -2.152
18:38 1018 30.06 847 25.01 21 69.9 39 6.6 43.8 -54.74 -2.155
18:39 1018 30.06 847 25.01 21 69.8 37 6 42.9 -54.79 -2.157
18:40 1018 30.06 847 25.01 21 69.8 38 6.4 43.5 -54.86 -2.16
18:41 1018 30.06 847 25.01 21.1 69.9 36 5.7 42.2 -54.87 -2.16
18:42 1018 30.06 847 25.01 21.1 69.9 40 7.1 44.9 -54.87 -2.16
18:43 1018 30.06 847 25.01 21.1 70 36 5.7 42.3 -54.94 -2.163
18:44 1018 30.06 847 25.01 21.1 70.1 38 6.3 43.4 -54.94 -2.163
18:45 1018 30.06 847 25.01 21.1 70.1 39 6.7 44.1 -54.94 -2.163
18:46 1018 30.06 847 25.01 21.2 70.1 39 6.8 44.2 -54.95 -2.163
18:47 1018 30.06 847 25.01 21.1 70 40 7.3 45.1 -55.01 -2.166
18:48 1018 30.06 847 25.01 21.1 70 37 6.2 43.2 -55.05 -2.167
18:49 1018 30.06 847 25.01 21.1 70 36 5.8 42.4 -55.09 -2.169
18:50 1018 30.06 847 25.01 21.1 70 40 7 44.6 -55.14 -2.171
18:51 1018 30.06 847 25.01 21.1 69.9 39 6.8 44.3 -55.14 -2.171
18:52 1018 30.06 847 25.01 21 69.8 39 6.5 43.7 -55.21 -2.174
18:53 1018 30.06 847 25.01 20.9 69.7 38 6.4 43.5 -55.25 -2.175
18:54 1018 30.06 847 25.01 20.8 69.5 37 5.9 42.6 -55.29 -2.177
18:55 1018 30.06 847 25.01 20.7 69.3 38 5.9 42.6 -55.35 -2.179
18:56 1018 30.06 847 25.01 20.7 69.2 38 6.1 43 -55.35 -2.179
18:57 1018 30.06 847 25.01 20.7 69.2 38 6.2 43.1 -55.35 -2.179
18:58 1018 30.06 847 25.01 20.6 69.2 39 6.4 43.4 -55.35 -2.179
18:59 1018 30.06 847 25.01 20.6 69.1 38 6 42.7 -55.37 -2.18
19:00 1018 30.06 847 25.01 20.5 68.9 39 6.3 43.3 -55.42 -2.182
19:01 1018 30.06 847 25.01 20.5 68.9 39 6.4 43.5 -55.43 -2.182
19:02 1018 30.06 847 25.01 20.5 68.8 39 6.3 43.3 -55.5 -2.185
19:03 1018 30.06 847 25.01 20.5 68.8 37 5.6 42.1 -55.55 -2.187
19:04 1018 30.06 847 25.01 20.5 68.9 38 6 42.7 -55.57 -2.188
19:05 1018 30.06 847 25.01 20.5 68.9 38 5.9 42.6 -55.61 -2.189
19:06 1018 30.06 847 25.01 20.6 69.1 39 6.4 43.6 -55.67 -2.192
19:07 1018 30.06 847 25.01 20.7 69.2 39 6.4 43.5 -55.69 -2.193
19:08 1018 30.06 847 25.01 20.7 69.3 38 5.9 42.7 -55.72 -2.194
19:09 1018 30.06 847 25.01 20.8 69.5 40 6.8 44.2 -55.78 -2.196
19:10 1018 30.06 847 25.01 20.8 69.5 41 7.3 45.1 -55.82 -2.198
19:11 1018 30.06 847 25.01 20.8 69.5 40 6.8 44.3 -55.82 -2.198
19:12 1018 30.06 847 25.01 20.8 69.5 39 6.7 44 -55.82 -2.198
19:13 1018 30.06 847 25.01 20.8 69.4 39 6.6 43.9 -55.84 -2.198
19:14 1018 30.06 847 25.01 20.9 69.6 38 6.3 43.3 -55.9 -2.201
19:15 1018 30.06 847 25.01 20.9 69.7 40 7.1 44.7 -55.98 -2.204
19:16 1018 30.06 847 25.01 20.9 69.6 39 6.7 44 -56.03 -2.206
19:17 1018 30.06 847 25.01 20.9 69.6 42 7.6 45.7 -56.06 -2.207
19:18 1018 30.06 847 25.01 20.9 69.5 38 6.4 43.4 -56.11 -2.209
19:19 1018 30.06 847 25.01 20.9 69.5 40 6.9 44.4 -56.15 -2.211
19:20 1018 30.06 847 25.01 20.8 69.5 37 5.9 42.6 -56.21 -2.213
19:21 1018 30.06 847 25.01 20.8 69.4 38 6.1 42.9 -56.27 -2.215
19:22 1018 30.06 847 25.01 20.8 69.4 39 6.4 43.4 -56.36 -2.219
19:23 1018 30.06 847 25.01 20.7 69.2 38 5.9 42.6 -56.46 -2.223
19:24 1018 30.06 847 25.01 20.7 69.3 39 6.3 43.4 -56.53 -2.226
19:25 1018 30.06 847 25.01 20.7 69.3 39 6.3 43.3 -56.54 -2.226
19:26 1018 30.06 847 25.01 20.7 69.3 39 6.4 43.5 -56.55 -2.226
19:27 1018 30.06 847 25.01 20.7 69.3 39 6.6 43.8 -56.58 -2.228
19:28 1018 30.06 847 25.01 20.7 69.3 37 5.8 42.5 -56.62 -2.229
19:29 1018 30.06 847 25.01 20.8 69.5 39 6.6 43.8 -56.67 -2.231
19:30 1018 30.06 847 25.01 20.8 69.5 40 7.1 44.7 -56.71 -2.233
19:31 1018 30.06 847 25.01 20.8 69.4 40 6.8 44.2 -56.73 -2.233
19:32 1018 30.06 847 25.01 20.8 69.4 38 6.2 43.1 -56.69 -2.232
19:33 1018 30.06 847 25.01 20.8 69.4 39 6.4 43.6 -56.68 -2.231
19:34 1018 30.06 847 25.01 20.8 69.4 39 6.4 43.5 -56.73 -2.233
19:35 1018 30.06 847 25.01 20.8 69.4 39 6.6 43.9 -56.79 -2.236
19:36 1018 30.06 847 25.01 20.7 69.3 39 6.3 43.4 -56.85 -2.238
19:37 1018 30.06 847 25.01 20.7 69.3 39 6.3 43.3 -56.88 -2.239
19:38 1018 30.06 847 25.01 20.7 69.3 37 5.6 42 -56.88 -2.239
19:39 1018 30.06 847 25.01 20.7 69.3 38 6.2 43.2 -56.93 -2.241
19:40 1018 30.06 847 25.01 20.6 69.1 39 6.5 43.7 -56.94 -2.242
19:41 1018 30.06 847 25.01 20.6 69 39 6.3 43.3 -56.95 -2.242
19:42 1018 30.06 847 25.01 20.5 68.9 40 6.6 43.8 -56.96 -2.243
19:43 1018 30.06 847 25.01 20.5 68.8 39 6.2 43.1 -56.95 -2.242
19:44 1018 30.06 847 25.01 20.5 68.9 39 6.3 43.3 -57.01 -2.244
19:45 1018 30.06 847 25.01 20.5 68.9 40 6.5 43.6 -57.08 -2.247
19:46 1018 30.06 847 25.01 20.5 68.8 38 6 42.7 -57.17 -2.251
19:47 1018 30.06 847 25.01 20.5 68.8 38 5.9 42.6 -57.21 -2.252
19:48 1018 30.06 847 25.01 20.5 68.9 39 6.1 43 -57.28 -2.255
19:49 1018 30.06 847 25.01 20.5 68.9 39 6.1 43.1 -57.32 -2.257
19:50 1018 30.06 847 25.01 20.4 68.8 39 6.1 42.9 -57.35 -2.258
19:51 1018 30.06 847 25.01 20.4 68.7 38 5.8 42.4 -57.4 -2.26
19:52 1018 30.06 847 25.01 20.4 68.7 37 5.6 42 -57.42 -2.261
19:53 1018 30.06 847 25.01 20.4 68.7 40 6.4 43.5 -57.43 -2.261
19:54 1018 30.06 847 25.01 20.4 68.7 40 6.3 43.4 -57.44 -2.261
19:55 1018 30.06 847 25.01 20.3 68.6 39 6.2 43.1 -57.46 -2.262
19:56 1018 30.06 847 25.01 20.3 68.6 39 6 42.7 -57.49 -2.263
19:57 1018 30.06 847 25.01 20.3 68.5 40 6.5 43.7 -57.49 -2.263
19:58 1018 30.06 847 25.01 20.2 68.3 40 6.2 43.2 -57.55 -2.266
19:59 1018 30.06 847 25.01 20.2 68.4 39 5.9 42.7 -57.56 -2.266
20:00 1018 30.06 847 25.01 20.3 68.5 39 5.9 42.5 -57.62 -2.269
20:01 1018 30.06 847 25.01 20.3 68.5 40 6.3 43.4 -57.68 -2.271
20:02 1018 30.06 847 25.01 20.3 68.5 38 5.8 42.4 -57.82 -2.276
20:03 1018 30.06 847 25.01 20.3 68.5 39 5.9 42.6 -57.95 -2.281
20:04 1018 30.06 847 25.01 20.2 68.4 40 6.3 43.4 -58.03 -2.285
20:05 1018 30.06 847 25.01 20.1 68.2 37 5.2 41.4 -58.09 -2.287
20:06 1018 30.06 847 25.01 20.1 68.2 39 5.7 42.3 -58.16 -2.29
20:07 1018 30.06 847 25.01 20 68.1 38 5.5 41.8 -58.23 -2.293
20:08 1018 30.06 847 25.01 20.1 68.1 38 5.5 42 -58.27 -2.294
20:09 1018 30.06 847 25.01 20.1 68.1 38 5.5 41.9 -58.32 -2.296
20:10 1018 30.06 847 25.01 20.1 68.2 37 5.3 41.5 -58.38 -2.298
20:11 1018 30.06 847 25.01 20.1 68.1 37 5.1 41.2 -58.45 -2.301
20:12 1018 30.06 847 25.01 20.1 68.1 38 5.6 42 -58.51 -2.304
20:13 1018 30.06 847 25.01 20.1 68.1 38 5.6 42.1 -58.56 -2.306
20:14 1018 30.06 847 25.01 20 68 38 5.5 41.9 -58.59 -2.307
20:15 1018 30.06 847 25.01 20 67.9 38 5.4 41.6 -58.65 -2.309
20:16 1018 30.06 847 25.01 20 68 37 5.2 41.4 -58.73 -2.312
20:17 1018 30.06 847 25.01 20 68 38 5.3 41.6 -58.76 -2.313
20:18 1018 30.06 847 25.01 20 67.9 38 5.3 41.5 -58.8 -2.315
20:19 1018 30.06 847 25.01 19.9 67.8 38 5.5 41.8 -58.86 -2.317
20:20 1018 30.06 847 25.01 19.8 67.6 39 5.5 42 -58.97 -2.322
20:21 1018 30.06 847 25.01 19.8 67.6 39 5.5 41.9 -59.03 -2.324
20:22 1018 30.06 847 25.01 19.7 67.4 39 5.5 42 -59.1 -2.327
20:23 1018 30.06 847 25.01 19.7 67.5 39 5.5 42 -59.15 -2.329
20:24 1018 30.06 847 25.01 19.7 67.4 38 5.2 41.4 -59.19 -2.33
20:25 1018 30.06 847 25.01 19.7 67.5 37 4.9 40.9 -59.25 -2.333
20:26 1018 30.06 847 25.01 19.8 67.6 39 5.5 41.8 -59.33 -2.336
20:27 1018 30.06 847 25.01 19.8 67.6 39 5.6 42.1 -59.41 -2.339
20:28 1018 30.06 847 25.01 19.6 67.3 40 5.6 42.2 -59.5 -2.343
20:29 1018 30.06 847 25.01 19.6 67.2 40 5.6 42.1 -59.59 -2.346
20:30 1018 30.06 847 25.01 19.6 67.3 39 5.4 41.7 -59.71 -2.351
20:31 1018 30.06 847 25.01 19.6 67.2 40 5.7 42.3 -59.81 -2.355
20:32 1018 30.06 847 25.01 19.5 67.1 40 5.7 42.2 -59.91 -2.359
20:33 1018 30.06 847 25.01 19.4 67 40 5.6 42.1 -59.98 -2.361
20:34 1018 30.06 847 25.01 19.4 66.9 39 5.4 41.6 -60.07 -2.365
20:35 1018 30.06 847 25.01 19.4 66.8 39 5.2 41.4 -60.15 -2.368
20:36 1018 30.06 847 25.01 19.4 66.8 40 5.5 41.9 -60.24 -2.372
20:37 1018 30.06 847 25.01 19.2 66.6 40 5.6 42 -60.32 -2.375
20:38 1018 30.06 847 25.01 19.2 66.5 40 5.5 41.9 -60.41 -2.378
20:39 1018 30.06 847 25.01 19 66.3 41 5.6 42.1 -60.51 -2.382
20:40 1018 30.06 847 25.01 19 66.1 42 5.8 42.4 -60.59 -2.385
20:41 1018 30.06 847 25.01 18.8 65.9 43 6 42.9 -60.68 -2.389
20:42 1018 30.06 847 25.01 18.7 65.7 41 5.4 41.8 -60.77 -2.393
20:43 1018 30.06 847 25.01 18.8 65.8 42 5.9 42.6 -60.87 -2.396
20:44 1018 30.06 847 25.01 18.7 65.7 42 5.8 42.4 -60.97 -2.4
20:45 1018 30.06 847 25.01 18.6 65.6 41 5.4 41.7 -61.07 -2.404
20:46 1018 30.06 847 25.01 18.7 65.6 42 5.7 42.3 -61.19 -2.409
20:47 1018 30.06 847 25.01 18.6 65.5 42 5.7 42.2 -61.31 -2.414
20:48 1018 30.06 847 25.01 18.6 65.5 42 5.8 42.4 -61.42 -2.418
20:49 1018 30.06 847 25.01 18.6 65.5 42 5.4 41.8 -61.51 -2.422
20:50 1018 30.06 847 25.01 18.6 65.4 42 5.6 42.2 -61.63 -2.426
20:51 1018 30.06 847 25.01 18.6 65.4 41 5.4 41.7 -61.76 -2.431
20:52 1018 30.06 847 25.01 18.6 65.5 43 5.8 42.4 -61.89 -2.437
20:53 1018 30.06 847 25.01 18.6 65.4 42 5.6 42.1 -62.03 -2.442
20:54 1018 30.06 847 25.01 18.5 65.3 42 5.6 42.1 -62.14 -2.446
20:55 1018 30.06 847 25.01 18.6 65.4 41 5.3 41.5 -62.28 -2.452
20:56 1018 30.06 847 25.01 18.6 65.5 41 5.2 41.3 -62.42 -2.457
20:57 1018 30.06 847 25.01 18.6 65.4 41 5.3 41.5 -62.53 -2.462
20:58 1018 30.06 847 25.01 18.6 65.4 42 5.7 42.2 -62.66 -2.467
20:59 1018 30.06 847 25.01 18.5 65.3 42 5.6 42 -62.74 -2.47
21:00 1018 30.06 847 25.01 18.4 65.1 43 5.7 42.3 -62.85 -2.474
21:01 1018 30.06 847 25.01 18.3 65 42 5.2 41.4 -62.96 -2.479
21:02 1018 30.06 847 25.01 18.4 65.1 42 5.4 41.7 -63.08 -2.483
21:03 1018 30.06 847 25.01 18.4 65.1 42 5.2 41.4 -63.2 -2.488
21:04 1018 30.06 847 25.01 18.5 65.2 43 5.7 42.2 -63.34 -2.494
21:05 1018 30.06 847 25.01 18.4 65.1 42 5.5 41.9 -63.46 -2.498
21:06 1018 30.06 847 25.01 18.2 64.8 43 5.5 41.9 -63.57 -2.503
21:07 1018 30.06 847 25.01 18.2 64.7 43 5.5 41.8 -63.68 -2.507
21:08 1018 30.06 847 25.01 18.2 64.7 42 5.3 41.6 -63.79 -2.511
21:09 1018 30.06 847 25.01 18.2 64.8 43 5.5 42 -63.88 -2.515
21:10 1018 30.06 847 25.01 18.1 64.6 44 5.7 42.2 -63.98 -2.519
21:11 1018 30.06 847 25.01 18 64.5 44 5.6 42.1 -64.08 -2.523
21:12 1018 30.06 847 25.01 18 64.4 43 5.4 41.8 -64.18 -2.527
21:13 1018 30.06 847 25.01 18.1 64.5 43 5.6 42 -64.3 -2.531
21:14 1018 30.06 847 25.01 18.1 64.5 44 5.8 42.4 -64.4 -2.535
21:15 1018 30.06 847 25.01 18 64.5 44 5.8 42.4 -64.51 -2.54
21:16 1018 30.06 847 25.01 18 64.4 43 5.4 41.7 -64.6 -2.543
21:17 1018 30.06 847 25.01 18.1 64.5 43 5.4 41.8 -64.71 -2.548
21:18 1018 30.06 847 25.01 18.1 64.5 43 5.6 42 -64.81 -2.552
21:19 1018 30.06 847 25.01 18 64.4 44 5.6 42 -64.94 -2.557
21:20 1018 30.06 847 25.01 17.9 64.3 44 5.7 42.3 -65.01 -2.559
21:21 1018 30.06 847 25.01 17.9 64.2 43 5.4 41.7 -65.09 -2.563
21:22 1018 30.06 847 25.01 18 64.4 44 5.7 42.3 -65.2 -2.567
21:23 1018 30.06 847 25.01 17.9 64.2 44 5.8 42.4 -65.28 -2.57
21:24 1018 30.06 847 25.01 17.8 64 45 5.8 42.4 -65.36 -2.573
21:25 1018 30.06 847 25.01 17.8 64.1 44 5.6 42 -65.46 -2.577
21:26 1018 30.06 847 25.01 17.8 64.1 45 5.7 42.3 -65.54 -2.58
21:27 1018 30.06 847 25.01 17.8 64.1 44 5.6 42 -65.65 -2.585
21:28 1018 30.06 847 25.01 17.8 64 45 5.8 42.4 -65.78 -2.59
21:29 1018 30.06 847 25.01 17.7 63.9 45 5.6 42.1 -65.88 -2.594
21:30 1018 30.06 847 25.01 17.8 64 44 5.4 41.8 -65.98 -2.598
21:31 1018 30.06 847 25.01 17.8 64.1 44 5.5 41.8 -66.07 -2.601
21:32 1018 30.06 847 25.01 17.9 64.2 45 5.7 42.3 -66.14 -2.604
21:33 1018 30.06 847 25.01 17.8 64.1 44 5.5 42 -66.21 -2.607
21:34 1018 30.06 847 25.01 17.8 64 44 5.6 42.2 -66.29 -2.61
21:35 1018 30.06 847 25.01 17.8 64 45 5.7 42.3 -66.38 -2.613
21:36 1018 30.06 847 25.01 17.7 63.8 45 5.7 42.3 -66.47 -2.617
21:37 1018 30.06 847 25.01 17.7 63.8 44 5.4 41.8 -66.55 -2.62
21:38 1018 30.06 847 25.01 17.7 63.8 44 5.4 41.8 -66.67 -2.625
21:39 1018 30.06 847 25.01 17.7 63.8 45 5.6 42.1 -66.77 -2.629
21:40 1018 30.06 847 25.01 17.7 63.8 45 5.7 42.3 -66.87 -2.633
21:41 1018 30.06 847 25.01 17.6 63.7 46 5.9 42.5 -66.97 -2.637
21:42 1018 30.06 847 25.01 17.4 63.4 46 5.7 42.3 -67.06 -2.64
21:43 1018 30.06 847 25.01 17.4 63.3 46 5.7 42.3 -67.15 -2.644
21:44 1018 30.06 847 25.01 17.4 63.4 45 5.6 42.1 -67.25 -2.648
21:45 1018 30.06 847 25.01 17.5 63.5 44 5.4 41.7 -67.35 -2.652
21:46 1018 30.06 847 25.01 17.5 63.6 45 5.7 42.2 -67.43 -2.655
21:47 1018 30.06 847 25.01 17.5 63.5 45 5.6 42 -67.54 -2.659
21:48 1018 30.06 847 25.01 17.5 63.5 44 5.3 41.6 -67.62 -2.662
21:49 1018 30.06 847 25.01 17.5 63.5 45 5.6 42.2 -67.7 -2.665
21:50 1018 30.06 847 25.01 17.5 63.4 45 5.6 42 -67.78 -2.669
21:51 1018 30.06 847 25.01 17.4 63.4 45 5.5 41.9 -67.87 -2.672
21:52 1018 30.06 847 25.01 17.4 63.3 45 5.6 42.1 -67.93 -2.674
21:53 1018 30.06 847 25.01 17.3 63.1 46 5.8 42.5 -67.97 -2.676
21:54 1018 30.06 847 25.01 17.3 63.1 45 5.4 41.8 -68.04 -2.679
21:55 1018 30.06 847 25.01 17.4 63.3 46 5.6 42.1 -68.13 -2.682
21:56 1018 30.06 847 25.01 17.3 63.2 45 5.5 41.9 -68.22 -2.686
21:57 1018 30.06 847 25.01 17.3 63.1 45 5.3 41.6 -68.31 -2.689
21:58 1018 30.06 847 25.01 17.4 63.2 46 5.6 42.1 -68.41 -2.693
21:59 1018 30.06 847 25.01 17.4 63.3 45 5.6 42.1 -68.48 -2.696
22:00 1018 30.06 847 25.01 17.3 63.2 46 5.7 42.2 -68.55 -2.699
22:01 1018 30.06 847 25.01 17.3 63.1 46 5.7 42.3 -68.61 -2.701
22:02 1018 30.06 847 25.01 17.2 63 45 5.4 41.8 -68.67 -2.704
22:03 1018 30.06 847 25.01 17.3 63.1 45 5.3 41.6 -68.68 -2.704
22:04 1018 30.06 847 25.01 17.3 63.2 46 5.7 42.3 -68.75 -2.707
22:05 1018 30.06 847 25.01 17.2 63 46 5.6 42 -68.84 -2.71
22:06 1018 30.06 847 25.01 17.3 63.1 45 5.4 41.8 -68.9 -2.713
22:07 1018 30.06 847 25.01 17.4 63.2 45 5.4 41.6 -68.97 -2.715
22:08 1018 30.06 847 25.01 17.4 63.3 45 5.5 41.9 -69.03 -2.718
22:09 1018 30.06 847 25.01 17.4 63.3 45 5.6 42.1 -69.09 -2.72
22:10 1018 30.06 847 25.01 17.4 63.2 45 5.6 42 -69.16 -2.723
22:11 1018 30.06 847 25.01 17.4 63.2 45 5.3 41.6 -69.24 -2.726
22:12 1018 30.06 847 25.01 17.3 63.2 46 5.6 42.2 -69.3 -2.728
22:13 1018 30.06 847 25.01 17.3 63.2 46 5.7 42.3 -69.34 -2.73
22:14 1018 30.06 847 25.01 17.3 63.1 46 5.7 42.2 -69.41 -2.733
22:15 1018 30.06 847 25.01 17.2 63 47 5.9 42.6 -69.47 -2.735
22:16 1018 30.06 847 25.01 17.1 62.8 46 5.7 42.2 -69.55 -2.738
22:17 1018 30.06 847 25.01 17.1 62.7 47 5.8 42.5 -69.63 -2.741
22:18 1018 30.06 847 25.01 17 62.7 47 5.8 42.5 -69.68 -2.743
22:19 1018 30.06 847 25.01 17 62.6 48 6 42.7 -69.74 -2.746
22:20 1018 30.06 847 25.01 17 62.5 47 5.8 42.5 -69.8 -2.748
22:21 1018 30.06 847 25.01 17 62.6 48 5.9 42.7 -69.86 -2.75
22:22 1018 30.06 847 25.01 17 62.5 48 6.1 42.9 -69.92 -2.753
22:23 1018 30.06 847 25.01 16.9 62.4 48 5.8 42.5 -69.97 -2.755
22:24 1018 30.06 847 25.01 16.9 62.4 48 6 42.8 -70 -2.756
22:25 1018 30.06 847 25.01 16.9 62.3 48 5.9 42.6 -70.1 -2.76
22:26 1018 30.06 847 25.01 17 62.6 49 6.2 43.2 -70.1 -2.76
22:27 1018 30.06 847 25.01 16.9 62.4 49 6.4 43.5 -70.2 -2.764
22:28 1018 30.06 847 25.01 16.9 62.3 50 6.4 43.5 -70.2 -2.764
22:29 1018 30.06 847 25.01 16.8 62.3 50 6.4 43.6 -70.3 -2.768
22:30 1018 30.06 847 25.01 16.9 62.3 50 6.6 43.8 -70.3 -2.768
22:31 1018 30.06 847 25.01 16.8 62.3 51 6.6 43.9 -70.3 -2.768
22:32 1018 30.06 847 25.01 16.7 62.1 51 6.7 44.1 -70.4 -2.772
22:33 1018 30.06 847 25.01 16.7 62.1 52 6.8 44.3 -70.4 -2.772
22:34 1018 30.06 847 25.01 16.7 62.1 52 6.9 44.5 -70.5 -2.776
22:35 1018 30.06 847 25.01 16.7 62.1 53 7.1 44.7 -70.5 -2.776
22:36 1018 30.06 847 25.01 16.7 62 53 7.1 44.8 -70.6 -2.78
22:37 1018 30.06 847 25.01 16.6 61.9 53 7.1 44.9 -70.6 -2.78
22:38 1018 30.06 847 25.01 16.6 61.8 54 7.2 44.9 -70.7 -2.783
22:39 1018 30.06 847 25.01 16.6 61.8 54 7.2 45 -70.7 -2.783
22:40 1018 30.06 847 25.01 16.6 61.8 54 7.3 45.1 -70.7 -2.783
22:41 1018 30.06 847 25.01 16.6 61.8 54 7.2 45 -70.8 -2.787
22:42 1018 30.06 847 25.01 16.6 61.8 54 7.4 45.3 -70.9 -2.791
22:43 1018 30.06 847 25.01 16.6 61.8 55 7.5 45.5 -70.9 -2.791
22:44 1018 30.06 847 25.01 16.5 61.7 55 7.5 45.6 -70.9 -2.791
22:45 1018 30.06 847 25.01 16.5 61.7 55 7.5 45.6 -71 -2.795
22:46 1018 30.06 847 25.01 16.5 61.7 56 7.7 45.8 -71 -2.795
22:47 1018 30.06 847 25.01 16.5 61.7 56 7.7 45.9 -71.1 -2.799
22:48 1018 30.06 847 25.01 16.4 61.6 56 7.8 46 -71.1 -2.799
22:49 1018 30.06 847 25.01 16.4 61.5 56 7.7 45.9 -71.2 -2.803
22:50 1018 30.06 847 25.01 16.4 61.6 56 7.7 45.8 -71.2 -2.803
22:51 1018 30.06 847 25.01 16.5 61.7 56 7.8 46.1 -71.3 -2.807
22:52 1018 30.06 847 25.01 16.5 61.7 56 7.7 45.9 -71.3 -2.807
22:53 1018 30.06 847 25.01 16.5 61.7 56 7.8 46 -71.4 -2.811
22:54 1018 30.06 847 25.01 16.5 61.7 56 7.7 45.9 -71.4 -2.811
22:55 1018 30.06 847 25.01 16.5 61.7 56 7.9 46.1 -71.4 -2.811
22:56 1018 30.06 847 25.01 16.5 61.7 57 7.9 46.3 -71.5 -2.815
22:57 1018 30.06 847 25.01 16.5 61.7 57 8 46.4 -71.6 -2.819
22:58 1018 30.06 847 25.01 16.4 61.6 57 7.9 46.2 -71.6 -2.819
22:59 1018 30.06 847 25.01 16.4 61.5 57 8 46.3 -71.7 -2.823
23:00 1018 30.06 847 25.01 16.4 61.4 57 7.9 46.1 -71.7 -2.823
23:01 1018 30.06 847 25.01 16.4 61.5 57 7.9 46.2 -71.8 -2.827
23:02 1018 30.06 847 25.01 16.5 61.6 56 7.9 46.2 -71.8 -2.827
23:03 1018 30.06 847 25.01 16.5 61.6 57 7.9 46.2 -71.9 -2.831
23:04 1018 30.06 847 25.01 16.4 61.5 57 7.9 46.3 -71.9 -2.831
23:05 1018 30.06 847 25.01 16.4 61.5 57 8.1 46.5 -72 -2.835
23:06 1018 30.06 847 25.01 16.3 61.4 57 7.8 46.1 -72 -2.835
23:07 1018 30.06 847 25.01 16.3 61.4 57 7.9 46.2 -72.1 -2.839
23:08 1018 30.06 847 25.01 16.3 61.4 57 7.9 46.2 -72.1 -2.839
23:09 1018 30.06 847 25.01 16.3 61.4 57 7.9 46.3 -72.2 -2.843
23:10 1018 30.06 847 25.01 16.2 61.2 58 7.9 46.3 -72.2 -2.843
23:11 1018 30.06 847 25.01 16.1 61 57 7.8 46 -72.3 -2.846
23:12 1018 30.06 847 25.01 16.1 61 58 7.8 46.1 -72.3 -2.846
23:13 1018 30.06 847 25.01 16.1 61 57 7.7 45.9 -72.4 -2.85
23:14 1018 30.06 847 25.01 16.2 61.1 57 7.8 46 -72.4 -2.85
23:15 1018 30.06 847 25.01 16.2 61.1 57 7.8 46.1 -72.5 -2.854
23:16 1018 30.06 847 25.01 16.1 61 57 7.7 45.9 -72.5 -2.854
23:17 1018 30.06 847 25.01 16.1 60.9 58 7.8 46 -72.6 -2.858
23:18 1018 30.06 847 25.01 16.1 60.9 57 7.7 45.9 -72.6 -2.858
23:19 1018 30.06 847 25.01 16.1 61.1 57 7.8 46.1 -72.6 -2.858
23:20 1018 30.06 847 25.01 16.1 60.9 58 7.8 46.1 -72.7 -2.862
23:21 1018 30.06 847 25.01 16 60.9 58 7.8 46 -72.7 -2.862
23:22 1018 30.06 847 25.01 16 60.8 58 7.7 45.9 -72.8 -2.866
23:23 1018 30.06 847 25.01 16 60.8 58 7.8 46.1 -72.8 -2.866
23:24 1018 30.06 847 25.01 16 60.8 58 7.9 46.2 -72.9 -2.87
23:25 1018 30.06 847 25.01 15.9 60.7 58 7.8 46 -72.9 -2.87
23:26 1018 30.06 847 25.01 15.9 60.7 58 7.8 46 -72.9 -2.87
23:27 1018 30.06 847 25.01 16 60.8 58 7.9 46.1 -73 -2.874
23:28 1018 30.06 847 25.01 16 60.8 58 7.9 46.2 -73 -2.874
23:29 1018 30.06 847 25.01 15.9 60.7 58 7.8 46 -73.1 -2.878
23:30 1018 30.06 847 25.01 16 60.8 58 7.7 45.9 -73.2 -2.882
23:31 1018 30.06 847 25.01 16 60.9 58 7.8 46.1 -73.2 -2.882
23:32 1018 30.06 847 25.01 16 60.8 58 7.7 45.9 -73.3 -2.886
23:33 1018 30.06 847 25.01 16 60.7 58 7.9 46.2 -73.4 -2.89
23:34 1018 30.06 847 25.01 16 60.7 58 7.8 46.1 -73.4 -2.89
23:35 1018 30.06 847 25.01 16 60.7 58 7.8 46 -73.4 -2.89
23:36 1018 30.06 847 25.01 16 60.7 58 7.8 46 -73.5 -2.894
23:37 1018 30.06 847 25.01 15.9 60.6 58 7.7 45.9 -73.5 -2.894
23:38 1018 30.06 847 25.01 15.9 60.6 58 7.7 45.8 -73.6 -2.898
23:39 1018 30.06 847 25.01 15.9 60.6 58 7.6 45.8 -73.6 -2.898
23:40 1018 30.06 847 25.01 15.9 60.7 57 7.6 45.6 -73.7 -2.902
23:41 1018 30.06 847 25.01 15.9 60.7 58 7.7 45.8 -73.7 -2.902
23:42 1018 30.06 847 25.01 15.9 60.6 57 7.5 45.6 -73.7 -2.902
23:43 1018 30.06 847 25.01 15.9 60.5 58 7.6 45.7 -73.8 -2.906
23:44 1018 30.06 847 25.01 15.8 60.5 57 7.5 45.5 -73.8 -2.906
23:45 1018 30.06 847 25.01 15.8 60.5 57 7.4 45.3 -73.9 -2.909
23:46 1018 30.06 847 25.01 15.8 60.5 57 7.5 45.5 -73.9 -2.909
23:47 1018 30.06 847 25.01 15.8 60.4 58 7.6 45.6 -74 -2.913
23:48 1018 30.06 847 25.01 15.7 60.2 58 7.5 45.5 -74 -2.913
23:49 1018 30.06 847 25.01 15.6 60 58 7.4 45.3 -74 -2.913
23:50 1018 30.06 847 25.01 15.5 59.9 58 7.4 45.3 -74.1 -2.917
23:51 1018 30.06 847 25.01 15.5 59.9 57 7.2 45 -74.1 -2.917
23:52 1018 30.06 847 25.01 15.5 60 57 7.2 44.9 -74.2 -2.921
23:53 1018 30.06 847 25.01 15.6 60 57 7.3 45.1 -74.2 -2.921
23:54 1018 30.06 847 25.01 15.5 59.9 58 7.5 45.4 -74.2 -2.921
23:55 1018 30.06 847 25.01 15.3 59.6 59 7.5 45.5 -74.3 -2.925
23:56 1018 30.06 847 25.01 15.2 59.4 60 7.6 45.7 -74.3 -2.925
23:57 1018 30.06 847 25.01 15.1 59.2 59 7.4 45.3 -74.4 -2.929
23:58 1018 30.06 847 25.01 15.1 59.2 59 7.2 45 -74.4 -2.929
23:59 1018 30.06 847 25.01 15.2 59.3 58 7.1 44.8 -74.5 -2.933
24:00 1018 30.06 847 25.01 15.3 59.6 57 7 44.5 -74.5 -2.933